PORTS® Data Listing: 8575512 Annapolis, MD

CO-OPS RAW PORTS DATA

************************      PRELIMINARY DATA      ************************** 

     THIS RAW DATA HAS NOT BEEN SUBJECT TO THE NATIONAL OCEAN SERVICE'S        
     QUALITY CONTROL OR QUALITY ASSURANCE PROCEDURES AND DOES NOT MEET         
     THE CRITERIA AND STANDARDS OF OFFICIAL NATIONAL OCEAN SERVICE             
     DATA.  IT IS RELEASED FOR LIMITED PUBLIC USE AS PRELIMINARY DATA TO       
     BE USED ONLY WITH APPROPRIATE CAUTION.                                    

************************      PRELIMINARY DATA      ************************** 


       CD   -   Calendar date
       T    -   Time
       TZ   -   Timezone
       PW   -   Predicted water level (feet above MLLW)
       OW   -   Observed water level (feet above MLLW)
       WS   -   Wind speed (knots)
       WD   -   Wind direction (degrees true)
       WG   -   Wind gust (knots)
       AT   -   Air temperature (degrees farenheit)
       WT   -   Water temperature (degrees farenheit)
       AP   -   Air pressure (millibars)
       SA   -   Salinty (PSU - Practical Salinity Units)
       SG   -   Specific gravity
       RH   -   Relative humidity
       AG   -   Air gap (feet)
       VI   -   Visibility (nautical miles)

       ** NOTE **
       A variable that has its data fields filled with "9"s, indicates that
       data was not collected for that sample period.
       **********


STATION NAME: Annapolis (8575512)
****************************************************************************************************
    CD       T    TZ    PW     OW    WS   WD   WG    AT    WT    AP    SA    SG     RH    AG   VI
****************************************************************************************************
2019/10/15 04:30 EDT    1.11   1.90 -999 -999 -999  55.5 -99.9 1019.2 -9.9 -9.999 -99.9 -99.99 -9.99
2019/10/15 04:36 EDT    1.13   1.92 -999 -999 -999  55.4 -99.9 1019.2 -9.9 -9.999 -99.9 -99.99 -9.99
2019/10/15 04:42 EDT    1.14   1.93 -999 -999 -999  55.3 -99.9 1019.2 -9.9 -9.999 -99.9 -99.99 -9.99
2019/10/15 04:48 EDT    1.16   1.94 -999 -999 -999  56.1 -99.9 1019.3 -9.9 -9.999 -99.9 -99.99 -9.99
2019/10/15 04:54 EDT    1.17   1.96 -999 -999 -999  55.5 -99.9 1019.4 -9.9 -9.999 -99.9 -99.99 -9.99
2019/10/15 05:00 EDT    1.19   1.98 -999 -999 -999  55.3 -99.9 1019.5 -9.9 -9.999 -99.9 -99.99 -9.99
2019/10/15 05:06 EDT    1.20   2.00 -999 -999 -999  55.2 -99.9 1019.5 -9.9 -9.999 -99.9 -99.99 -9.99
2019/10/15 05:12 EDT    1.21   2.02 -999 -999 -999  55.0 -99.9 1019.6 -9.9 -9.999 -99.9 -99.99 -9.99
2019/10/15 05:18 EDT    1.23   2.04 -999 -999 -999  55.0 -99.9 1019.6 -9.9 -9.999 -99.9 -99.99 -9.99
2019/10/15 05:24 EDT    1.24   2.04 -999 -999 -999  54.8 -99.9 1019.7 -9.9 -9.999 -99.9 -99.99 -9.99
2019/10/15 05:30 EDT    1.25   2.06 -999 -999 -999  54.7 -99.9 1019.8 -9.9 -9.999 -99.9 -99.99 -9.99
2019/10/15 05:36 EDT    1.26   2.08 -999 -999 -999  55.8 -99.9 1019.7 -9.9 -9.999 -99.9 -99.99 -9.99
2019/10/15 05:42 EDT    1.27   2.09 -999 -999 -999  56.5 -99.9 1019.8 -9.9 -9.999 -99.9 -99.99 -9.99
2019/10/15 05:48 EDT    1.28   2.10 -999 -999 -999  55.8 -99.9 1019.9 -9.9 -9.999 -99.9 -99.99 -9.99
2019/10/15 05:54 EDT    1.29   2.10 -999 -999 -999  55.5 -99.9 1019.9 -9.9 -9.999 -99.9 -99.99 -9.99
2019/10/15 06:00 EDT    1.29   2.11 -999 -999 -999  55.0 -99.9 1020.0 -9.9 -9.999 -99.9 -99.99 -9.99
2019/10/15 06:06 EDT    1.30   2.11 -999 -999 -999  54.8 -99.9 1020.1 -9.9 -9.999 -99.9 -99.99 -9.99
2019/10/15 06:12 EDT    1.30   2.12 -999 -999 -999  54.6 -99.9 1020.2 -9.9 -9.999 -99.9 -99.99 -9.99
2019/10/15 06:18 EDT    1.30   2.12 -999 -999 -999  54.5 -99.9 1020.3 -9.9 -9.999 -99.9 -99.99 -9.99
2019/10/15 06:24 EDT    1.31   2.13 -999 -999 -999  54.8 -99.9 1020.4 -9.9 -9.999 -99.9 -99.99 -9.99
2019/10/15 06:30 EDT    1.31   2.13 -999 -999 -999  54.7 -99.9 1020.4 -9.9 -9.999 -99.9 -99.99 -9.99
2019/10/15 06:36 EDT    1.31   2.14 -999 -999 -999  54.9 -99.9 1020.4 -9.9 -9.999 -99.9 -99.99 -9.99
2019/10/15 06:42 EDT    1.31   2.13 -999 -999 -999  54.9 -99.9 1020.4 -9.9 -9.999 -99.9 -99.99 -9.99
2019/10/15 06:48 EDT    1.30   2.13 -999 -999 -999  55.8 -99.9 1020.4 -9.9 -9.999 -99.9 -99.99 -9.99
2019/10/15 06:54 EDT    1.30   2.12 -999 -999 -999  55.8 -99.9 1020.4 -9.9 -9.999 -99.9 -99.99 -9.99
2019/10/15 07:00 EDT    1.29   2.12 -999 -999 -999  55.6 -99.9 1020.5 -9.9 -9.999 -99.9 -99.99 -9.99
2019/10/15 07:06 EDT    1.29   2.11 -999 -999 -999  56.1 -99.9 1020.5 -9.9 -9.999 -99.9 -99.99 -9.99
2019/10/15 07:12 EDT    1.28   2.10 -999 -999 -999  55.7 -99.9 1020.6 -9.9 -9.999 -99.9 -99.99 -9.99
2019/10/15 07:18 EDT    1.27   2.09 -999 -999 -999  55.9 -99.9 1020.7 -9.9 -9.999 -99.9 -99.99 -9.99
2019/10/15 07:24 EDT    1.26   2.07 -999 -999 -999  56.0 -99.9 1020.7 -9.9 -9.999 -99.9 -99.99 -9.99
2019/10/15 07:30 EDT    1.24   2.06 -999 -999 -999  56.7 -99.9 1020.8 -9.9 -9.999 -99.9 -99.99 -9.99
2019/10/15 07:36 EDT    1.23   2.05 -999 -999 -999  57.1 -99.9 1020.9 -9.9 -9.999 -99.9 -99.99 -9.99
2019/10/15 07:42 EDT    1.22   2.04 -999 -999 -999  57.3 -99.9 1020.9 -9.9 -9.999 -99.9 -99.99 -9.99
2019/10/15 07:48 EDT    1.20   2.03 -999 -999 -999  57.8 -99.9 1021.0 -9.9 -9.999 -99.9 -99.99 -9.99
2019/10/15 07:54 EDT    1.19   2.02 -999 -999 -999  57.9 -99.9 1021.0 -9.9 -9.999 -99.9 -99.99 -9.99
2019/10/15 08:00 EDT    1.17   2.01 -999 -999 -999  58.2 -99.9 1021.0 -9.9 -9.999 -99.9 -99.99 -9.99
2019/10/15 08:06 EDT    1.15   2.00 -999 -999 -999  58.7 -99.9 1021.1 -9.9 -9.999 -99.9 -99.99 -9.99
2019/10/15 08:12 EDT    1.13   1.97 -999 -999 -999  59.1 -99.9 1021.2 -9.9 -9.999 -99.9 -99.99 -9.99
2019/10/15 08:18 EDT    1.11   1.95 -999 -999 -999  59.3 -99.9 1021.3 -9.9 -9.999 -99.9 -99.99 -9.99
2019/10/15 08:24 EDT    1.09   1.93 -999 -999 -999  59.2 -99.9 1021.4 -9.9 -9.999 -99.9 -99.99 -9.99
2019/10/15 08:30 EDT    1.07   1.92 -999 -999 -999  59.2 -99.9 1021.4 -9.9 -9.999 -99.9 -99.99 -9.99
2019/10/15 08:36 EDT    1.05   1.90 -999 -999 -999  59.1 -99.9 1021.4 -9.9 -9.999 -99.9 -99.99 -9.99
2019/10/15 08:42 EDT    1.03   1.88 -999 -999 -999  59.4 -99.9 1021.5 -9.9 -9.999 -99.9 -99.99 -9.99
2019/10/15 08:48 EDT    1.00   1.86 -999 -999 -999  59.5 -99.9 1021.6 -9.9 -9.999 -99.9 -99.99 -9.99
2019/10/15 08:54 EDT    0.98   1.85 -999 -999 -999  59.7 -99.9 1021.7 -9.9 -9.999 -99.9 -99.99 -9.99
2019/10/15 09:00 EDT    0.96   1.83 -999 -999 -999  60.2 -99.9 1021.8 -9.9 -9.999 -99.9 -99.99 -9.99
2019/10/15 09:06 EDT    0.93   1.81 -999 -999 -999  59.8 -99.9 1021.8 -9.9 -9.999 -99.9 -99.99 -9.99
2019/10/15 09:12 EDT    0.91   1.79 -999 -999 -999  60.5 -99.9 1021.8 -9.9 -9.999 -99.9 -99.99 -9.99
2019/10/15 09:18 EDT    0.89   1.77 -999 -999 -999  60.8 -99.9 1021.7 -9.9 -9.999 -99.9 -99.99 -9.99
2019/10/15 09:24 EDT    0.86   1.75 -999 -999 -999  60.7 -99.9 1021.6 -9.9 -9.999 -99.9 -99.99 -9.99
2019/10/15 09:30 EDT    0.84   1.73 -999 -999 -999  60.2 -99.9 1021.7 -9.9 -9.999 -99.9 -99.99 -9.99
2019/10/15 09:36 EDT    0.81   1.71 -999 -999 -999  60.1 -99.9 1021.8 -9.9 -9.999 -99.9 -99.99 -9.99
2019/10/15 09:42 EDT    0.79   1.69 -999 -999 -999  59.6 -99.9 1021.9 -9.9 -9.999 -99.9 -99.99 -9.99
2019/10/15 09:48 EDT    0.77   1.67 -999 -999 -999  59.5 -99.9 1021.9 -9.9 -9.999 -99.9 -99.99 -9.99
2019/10/15 09:54 EDT    0.74   1.64 -999 -999 -999  59.5 -99.9 1021.8 -9.9 -9.999 -99.9 -99.99 -9.99
2019/10/15 10:00 EDT    0.72   1.62 -999 -999 -999  59.8 -99.9 1021.8 -9.9 -9.999 -99.9 -99.99 -9.99
2019/10/15 10:06 EDT    0.70   1.60 -999 -999 -999  59.8 -99.9 1021.8 -9.9 -9.999 -99.9 -99.99 -9.99
2019/10/15 10:12 EDT    0.67   1.59 -999 -999 -999  59.9 -99.9 1021.8 -9.9 -9.999 -99.9 -99.99 -9.99
2019/10/15 10:18 EDT    0.65   1.57 -999 -999 -999  59.6 -99.9 1021.8 -9.9 -9.999 -99.9 -99.99 -9.99
2019/10/15 10:24 EDT    0.63   1.54 -999 -999 -999  59.8 -99.9 1021.7 -9.9 -9.999 -99.9 -99.99 -9.99
2019/10/15 10:30 EDT    0.61   1.51 -999 -999 -999  60.0 -99.9 1021.6 -9.9 -9.999 -99.9 -99.99 -9.99
2019/10/15 10:36 EDT    0.58   1.50 -999 -999 -999  60.4 -99.9 1021.6 -9.9 -9.999 -99.9 -99.99 -9.99
2019/10/15 10:42 EDT    0.56   1.47 -999 -999 -999  60.1 -99.9 1021.7 -9.9 -9.999 -99.9 -99.99 -9.99
2019/10/15 10:48 EDT    0.54   1.45 -999 -999 -999  60.0 -99.9 1021.6 -9.9 -9.999 -99.9 -99.99 -9.99
2019/10/15 10:54 EDT    0.52   1.43 -999 -999 -999  60.2 -99.9 1021.5 -9.9 -9.999 -99.9 -99.99 -9.99
2019/10/15 11:00 EDT    0.50   1.40 -999 -999 -999  60.4 -99.9 1021.6 -9.9 -9.999 -99.9 -99.99 -9.99
2019/10/15 11:06 EDT    0.48   1.39 -999 -999 -999  60.6 -99.9 1021.6 -9.9 -9.999 -99.9 -99.99 -9.99
2019/10/15 11:12 EDT    0.46   1.37 -999 -999 -999  60.5 -99.9 1021.6 -9.9 -9.999 -99.9 -99.99 -9.99
2019/10/15 11:18 EDT    0.44   1.35 -999 -999 -999  60.8 -99.9 1021.6 -9.9 -9.999 -99.9 -99.99 -9.99
2019/10/15 11:24 EDT    0.42   1.33 -999 -999 -999  61.0 -99.9 1021.6 -9.9 -9.999 -99.9 -99.99 -9.99
2019/10/15 11:30 EDT    0.41   1.32 -999 -999 -999  61.0 -99.9 1021.5 -9.9 -9.999 -99.9 -99.99 -9.99
2019/10/15 11:36 EDT    0.39   1.29 -999 -999 -999  61.4 -99.9 1021.4 -9.9 -9.999 -99.9 -99.99 -9.99
2019/10/15 11:42 EDT    0.37   1.28 -999 -999 -999  61.3 -99.9 1021.3 -9.9 -9.999 -99.9 -99.99 -9.99
2019/10/15 11:48 EDT    0.36   1.26 -999 -999 -999  61.4 -99.9 1021.3 -9.9 -9.999 -99.9 -99.99 -9.99
2019/10/15 11:54 EDT    0.35   1.24 -999 -999 -999  61.9 -99.9 1021.2 -9.9 -9.999 -99.9 -99.99 -9.99
2019/10/15 12:00 EDT    0.33   1.23 -999 -999 -999  61.9 -99.9 1021.2 -9.9 -9.999 -99.9 -99.99 -9.99
2019/10/15 12:06 EDT    0.32   1.22 -999 -999 -999  62.2 -99.9 1021.2 -9.9 -9.999 -99.9 -99.99 -9.99
2019/10/15 12:12 EDT    0.31   1.21 -999 -999 -999  62.4 -99.9 1021.2 -9.9 -9.999 -99.9 -99.99 -9.99
2019/10/15 12:18 EDT    0.30   1.20 -999 -999 -999  62.3 -99.9 1021.1 -9.9 -9.999 -99.9 -99.99 -9.99
2019/10/15 12:24 EDT    0.29   1.19 -999 -999 -999  62.5 -99.9 1021.0 -9.9 -9.999 -99.9 -99.99 -9.99
2019/10/15 12:30 EDT    0.29   1.19 -999 -999 -999  62.6 -99.9 1021.0 -9.9 -9.999 -99.9 -99.99 -9.99
2019/10/15 12:36 EDT    0.28   1.18 -999 -999 -999  62.8 -99.9 1021.0 -9.9 -9.999 -99.9 -99.99 -9.99
2019/10/15 12:42 EDT    0.28   1.18 -999 -999 -999  62.9 -99.9 1020.9 -9.9 -9.999 -99.9 -99.99 -9.99
2019/10/15 12:48 EDT    0.28   1.18 -999 -999 -999  63.3 -99.9 1020.8 -9.9 -9.999 -99.9 -99.99 -9.99
2019/10/15 12:54 EDT    0.28   1.18 -999 -999 -999  63.5 -99.9 1020.7 -9.9 -9.999 -99.9 -99.99 -9.99
2019/10/15 13:00 EDT    0.28   1.18 -999 -999 -999  63.9 -99.9 1020.7 -9.9 -9.999 -99.9 -99.99 -9.99
2019/10/15 13:06 EDT    0.28   1.19 -999 -999 -999  64.5 -99.9 1020.6 -9.9 -9.999 -99.9 -99.99 -9.99
2019/10/15 13:12 EDT    0.28   1.20 -999 -999 -999  64.5 -99.9 1020.5 -9.9 -9.999 -99.9 -99.99 -9.99
2019/10/15 13:18 EDT    0.29   1.21 -999 -999 -999  64.7 -99.9 1020.5 -9.9 -9.999 -99.9 -99.99 -9.99
2019/10/15 13:24 EDT    0.30   1.22 -999 -999 -999  64.7 -99.9 1020.4 -9.9 -9.999 -99.9 -99.99 -9.99
2019/10/15 13:30 EDT    0.31   1.22 -999 -999 -999  64.7 -99.9 1020.3 -9.9 -9.999 -99.9 -99.99 -9.99
2019/10/15 13:36 EDT    0.32   1.24 -999 -999 -999  64.9 -99.9 1020.2 -9.9 -9.999 -99.9 -99.99 -9.99
2019/10/15 13:42 EDT    0.33   1.25 -999 -999 -999  65.4 -99.9 1020.1 -9.9 -9.999 -99.9 -99.99 -9.99
2019/10/15 13:48 EDT    0.35   1.27 -999 -999 -999  65.5 -99.9 1020.1 -9.9 -9.999 -99.9 -99.99 -9.99
2019/10/15 13:54 EDT    0.36   1.29 -999 -999 -999  65.5 -99.9 1020.1 -9.9 -9.999 -99.9 -99.99 -9.99
2019/10/15 14:00 EDT    0.38   1.29 -999 -999 -999  65.2 -99.9 1020.1 -9.9 -9.999 -99.9 -99.99 -9.99
2019/10/15 14:06 EDT    0.40   1.31 -999 -999 -999  64.9 -99.9 1019.9 -9.9 -9.999 -99.9 -99.99 -9.99
2019/10/15 14:12 EDT    0.42   1.33 -999 -999 -999  64.8 -99.9 1019.8 -9.9 -9.999 -99.9 -99.99 -9.99
2019/10/15 14:18 EDT    0.44   1.35 -999 -999 -999  64.4 -99.9 1019.7 -9.9 -9.999 -99.9 -99.99 -9.99
2019/10/15 14:24 EDT    0.47   1.39 -999 -999 -999  64.3 -99.9 1019.6 -9.9 -9.999 -99.9 -99.99 -9.99
2019/10/15 14:30 EDT    0.49   1.41 -999 -999 -999  64.4 -99.9 1019.5 -9.9 -9.999 -99.9 -99.99 -9.99
2019/10/15 14:36 EDT    0.52   1.44 -999 -999 -999  64.6 -99.9 1019.4 -9.9 -9.999 -99.9 -99.99 -9.99
2019/10/15 14:42 EDT    0.54   1.47 -999 -999 -999  64.8 -99.9 1019.3 -9.9 -9.999 -99.9 -99.99 -9.99
2019/10/15 14:48 EDT    0.57   1.45 -999 -999 -999  64.9 -99.9 1019.3 -9.9 -9.999 -99.9 -99.99 -9.99
2019/10/15 14:54 EDT    0.60   1.49 -999 -999 -999  64.7 -99.9 1019.2 -9.9 -9.999 -99.9 -99.99 -9.99
2019/10/15 15:00 EDT    0.62   1.53 -999 -999 -999  64.9 -99.9 1019.1 -9.9 -9.999 -99.9 -99.99 -9.99
2019/10/15 15:06 EDT    0.65   1.56 -999 -999 -999  65.1 -99.9 1019.1 -9.9 -9.999 -99.9 -99.99 -9.99
2019/10/15 15:12 EDT    0.68   1.58 -999 -999 -999  65.2 -99.9 1019.0 -9.9 -9.999 -99.9 -99.99 -9.99
2019/10/15 15:18 EDT    0.71   1.61 -999 -999 -999  65.2 -99.9 1019.0 -9.9 -9.999 -99.9 -99.99 -9.99
2019/10/15 15:24 EDT    0.74   1.63 -999 -999 -999  65.6 -99.9 1018.9 -9.9 -9.999 -99.9 -99.99 -9.99
2019/10/15 15:30 EDT    0.77   1.65 -999 -999 -999  65.9 -99.9 1018.8 -9.9 -9.999 -99.9 -99.99 -9.99
2019/10/15 15:36 EDT    0.80   1.70 -999 -999 -999  65.9 -99.9 1018.7 -9.9 -9.999 -99.9 -99.99 -9.99
2019/10/15 15:42 EDT    0.83   1.72 -999 -999 -999  65.9 -99.9 1018.6 -9.9 -9.999 -99.9 -99.99 -9.99
2019/10/15 15:48 EDT    0.86   1.74 -999 -999 -999  65.5 -99.9 1018.6 -9.9 -9.999 -99.9 -99.99 -9.99
2019/10/15 15:54 EDT    0.89   1.78 -999 -999 -999  65.8 -99.9 1018.6 -9.9 -9.999 -99.9 -99.99 -9.99
2019/10/15 16:00 EDT    0.92   1.78 -999 -999 -999  65.7 -99.9 1018.6 -9.9 -9.999 -99.9 -99.99 -9.99
2019/10/15 16:06 EDT    0.95   1.80 -999 -999 -999  65.8 -99.9 1018.6 -9.9 -9.999 -99.9 -99.99 -9.99
2019/10/15 16:12 EDT    0.98   1.83 -999 -999 -999  65.8 -99.9 1018.5 -9.9 -9.999 -99.9 -99.99 -9.99
2019/10/15 16:18 EDT    1.01   1.85 -999 -999 -999  65.9 -99.9 1018.4 -9.9 -9.999 -99.9 -99.99 -9.99
2019/10/15 16:24 EDT    1.03   1.90 -999 -999 -999  65.5 -99.9 1018.3 -9.9 -9.999 -99.9 -99.99 -9.99
2019/10/15 16:30 EDT    1.06   1.93 -999 -999 -999  65.7 -99.9 1018.1 -9.9 -9.999 -99.9 -99.99 -9.99
2019/10/15 16:36 EDT    1.09   1.95 -999 -999 -999  65.7 -99.9 1018.0 -9.9 -9.999 -99.9 -99.99 -9.99
2019/10/15 16:42 EDT    1.12   1.97 -999 -999 -999  66.1 -99.9 1017.9 -9.9 -9.999 -99.9 -99.99 -9.99
2019/10/15 16:48 EDT    1.14   1.97 -999 -999 -999  66.2 -99.9 1018.0 -9.9 -9.999 -99.9 -99.99 -9.99
2019/10/15 16:54 EDT    1.17   2.01 -999 -999 -999  66.2 -99.9 1017.9 -9.9 -9.999 -99.9 -99.99 -9.99
2019/10/15 17:00 EDT    1.19   2.03 -999 -999 -999  66.0 -99.9 1017.9 -9.9 -9.999 -99.9 -99.99 -9.99
2019/10/15 17:06 EDT    1.22   2.05 -999 -999 -999  66.1 -99.9 1017.7 -9.9 -9.999 -99.9 -99.99 -9.99
2019/10/15 17:12 EDT    1.24   2.08 -999 -999 -999  65.9 -99.9 1017.7 -9.9 -9.999 -99.9 -99.99 -9.99
2019/10/15 17:18 EDT    1.27   2.11 -999 -999 -999  65.9 -99.9 1017.6 -9.9 -9.999 -99.9 -99.99 -9.99
2019/10/15 17:24 EDT    1.29   2.12 -999 -999 -999  65.7 -99.9 1017.5 -9.9 -9.999 -99.9 -99.99 -9.99
2019/10/15 17:30 EDT    1.31   2.14 -999 -999 -999  65.7 -99.9 1017.5 -9.9 -9.999 -99.9 -99.99 -9.99
2019/10/15 17:36 EDT    1.33   2.16 -999 -999 -999  65.7 -99.9 1017.5 -9.9 -9.999 -99.9 -99.99 -9.99
2019/10/15 17:42 EDT    1.35   2.19 -999 -999 -999  65.6 -99.9 1017.6 -9.9 -9.999 -99.9 -99.99 -9.99
2019/10/15 17:48 EDT    1.37   2.21 -999 -999 -999  65.5 -99.9 1017.7 -9.9 -9.999 -99.9 -99.99 -9.99
2019/10/15 17:54 EDT    1.39   2.23 -999 -999 -999  65.4 -99.9 1017.6 -9.9 -9.999 -99.9 -99.99 -9.99
2019/10/15 18:00 EDT    1.41   2.23 -999 -999 -999  65.4 -99.9 1017.5 -9.9 -9.999 -99.9 -99.99 -9.99
2019/10/15 18:06 EDT    1.42   2.26 -999 -999 -999  65.1 -99.9 1017.6 -9.9 -9.999 -99.9 -99.99 -9.99
2019/10/15 18:12 EDT    1.44   2.27 -999 -999 -999  64.6 -99.9 1017.6 -9.9 -9.999 -99.9 -99.99 -9.99
2019/10/15 18:18 EDT    1.46   2.28 -999 -999 -999  64.3 -99.9 1017.6 -9.9 -9.999 -99.9 -99.99 -9.99
2019/10/15 18:24 EDT    1.47   2.29 -999 -999 -999  64.1 -99.9 1017.5 -9.9 -9.999 -99.9 -99.99 -9.99
2019/10/15 18:30 EDT    1.48   2.30 -999 -999 -999  63.8 -99.9 1017.4 -9.9 -9.999 -99.9 -99.99 -9.99
2019/10/15 18:36 EDT    1.49   2.32 -999 -999 -999  63.6 -99.9 1017.4 -9.9 -9.999 -99.9 -99.99 -9.99
2019/10/15 18:42 EDT    1.50   2.33 -999 -999 -999  63.5 -99.9 1017.5 -9.9 -9.999 -99.9 -99.99 -9.99
2019/10/15 18:48 EDT    1.51   2.33 -999 -999 -999  63.3 -99.9 1017.5 -9.9 -9.999 -99.9 -99.99 -9.99
2019/10/15 18:54 EDT    1.52   2.33 -999 -999 -999  63.3 -99.9 1017.5 -9.9 -9.999 -99.9 -99.99 -9.99
2019/10/15 19:00 EDT    1.52   2.34 -999 -999 -999  63.3 -99.9 1017.5 -9.9 -9.999 -99.9 -99.99 -9.99
2019/10/15 19:06 EDT    1.53   2.35 -999 -999 -999  62.9 -99.9 1017.5 -9.9 -9.999 -99.9 -99.99 -9.99
2019/10/15 19:12 EDT    1.53   2.34 -999 -999 -999  62.9 -99.9 1017.4 -9.9 -9.999 -99.9 -99.99 -9.99
2019/10/15 19:18 EDT    1.53   2.34 -999 -999 -999  62.7 -99.9 1017.4 -9.9 -9.999 -99.9 -99.99 -9.99
2019/10/15 19:24 EDT    1.53   2.34 -999 -999 -999  62.5 -99.9 1017.3 -9.9 -9.999 -99.9 -99.99 -9.99
2019/10/15 19:30 EDT    1.53   2.34 -999 -999 -999  62.3 -99.9 1017.3 -9.9 -9.999 -99.9 -99.99 -9.99
2019/10/15 19:36 EDT    1.53   2.34 -999 -999 -999  62.0 -99.9 1017.3 -9.9 -9.999 -99.9 -99.99 -9.99
2019/10/15 19:42 EDT    1.53   2.32 -999 -999 -999  61.9 -99.9 1017.2 -9.9 -9.999 -99.9 -99.99 -9.99
2019/10/15 19:48 EDT    1.52   2.32 -999 -999 -999  61.9 -99.9 1017.3 -9.9 -9.999 -99.9 -99.99 -9.99
2019/10/15 19:54 EDT    1.51   2.31 -999 -999 -999  61.9 -99.9 1017.3 -9.9 -9.999 -99.9 -99.99 -9.99
2019/10/15 20:00 EDT    1.51   2.30 -999 -999 -999  61.7 -99.9 1017.2 -9.9 -9.999 -99.9 -99.99 -9.99
2019/10/15 20:06 EDT    1.50   2.30 -999 -999 -999  61.8 -99.9 1017.2 -9.9 -9.999 -99.9 -99.99 -9.99
2019/10/15 20:12 EDT    1.49   2.29 -999 -999 -999  61.8 -99.9 1017.1 -9.9 -9.999 -99.9 -99.99 -9.99
2019/10/15 20:18 EDT    1.47   2.27 -999 -999 -999  61.4 -99.9 1017.0 -9.9 -9.999 -99.9 -99.99 -9.99
2019/10/15 20:24 EDT    1.46   2.27 -999 -999 -999  61.1 -99.9 1016.8 -9.9 -9.999 -99.9 -99.99 -9.99
2019/10/15 20:30 EDT    1.45   2.25 -999 -999 -999  61.9 -99.9 1016.8 -9.9 -9.999 -99.9 -99.99 -9.99
2019/10/15 20:36 EDT    1.43   2.25 -999 -999 -999  63.3 -99.9 1016.7 -9.9 -9.999 -99.9 -99.99 -9.99
2019/10/15 20:42 EDT    1.42   2.23 -999 -999 -999  63.7 -99.9 1016.7 -9.9 -9.999 -99.9 -99.99 -9.99
2019/10/15 20:48 EDT    1.40   2.23 -999 -999 -999  63.9 -99.9 1016.7 -9.9 -9.999 -99.9 -99.99 -9.99
2019/10/15 20:54 EDT    1.38   2.22 -999 -999 -999  64.0 -99.9 1016.7 -9.9 -9.999 -99.9 -99.99 -9.99
2019/10/15 21:00 EDT    1.36   2.19 -999 -999 -999  64.1 -99.9 1016.7 -9.9 -9.999 -99.9 -99.99 -9.99
2019/10/15 21:06 EDT    1.34   2.15 -999 -999 -999  64.3 -99.9 1016.7 -9.9 -9.999 -99.9 -99.99 -9.99
2019/10/15 21:12 EDT    1.32   2.15 -999 -999 -999  63.8 -99.9 1016.8 -9.9 -9.999 -99.9 -99.99 -9.99
2019/10/15 21:18 EDT    1.30   2.13 -999 -999 -999  63.9 -99.9 1016.7 -9.9 -9.999 -99.9 -99.99 -9.99
2019/10/15 21:24 EDT    1.28   2.13 -999 -999 -999  63.8 -99.9 1016.8 -9.9 -9.999 -99.9 -99.99 -9.99
2019/10/15 21:30 EDT    1.26   2.12 -999 -999 -999  63.5 -99.9 1016.8 -9.9 -9.999 -99.9 -99.99 -9.99
2019/10/15 21:36 EDT    1.24   2.11 -999 -999 -999  63.2 -99.9 1016.8 -9.9 -9.999 -99.9 -99.99 -9.99
2019/10/15 21:42 EDT    1.22   2.10 -999 -999 -999  63.0 -99.9 1016.8 -9.9 -9.999 -99.9 -99.99 -9.99
2019/10/15 21:48 EDT    1.20   2.10 -999 -999 -999  63.0 -99.9 1016.7 -9.9 -9.999 -99.9 -99.99 -9.99
2019/10/15 21:54 EDT    1.18   2.09 -999 -999 -999  63.2 -99.9 1016.7 -9.9 -9.999 -99.9 -99.99 -9.99
2019/10/15 22:00 EDT    1.16   2.07 -999 -999 -999  63.1 -99.9 1016.7 -9.9 -9.999 -99.9 -99.99 -9.99
2019/10/15 22:06 EDT    1.13   2.05 -999 -999 -999  63.0 -99.9 1016.7 -9.9 -9.999 -99.9 -99.99 -9.99
2019/10/15 22:12 EDT    1.11   2.05 -999 -999 -999  63.1 -99.9 1016.5 -9.9 -9.999 -99.9 -99.99 -9.99
2019/10/15 22:18 EDT    1.09   2.02 -999 -999 -999  62.9 -99.9 1016.5 -9.9 -9.999 -99.9 -99.99 -9.99
2019/10/15 22:24 EDT    1.07   2.01 -999 -999 -999  62.9 -99.9 1016.4 -9.9 -9.999 -99.9 -99.99 -9.99
2019/10/15 22:30 EDT    1.04   1.97 -999 -999 -999  62.7 -99.9 1016.5 -9.9 -9.999 -99.9 -99.99 -9.99
2019/10/15 22:36 EDT    1.02   1.95 -999 -999 -999  62.6 -99.9 1016.6 -9.9 -9.999 -99.9 -99.99 -9.99
2019/10/15 22:42 EDT    1.00   1.93 -999 -999 -999  62.5 -99.9 1016.7 -9.9 -9.999 -99.9 -99.99 -9.99
2019/10/15 22:48 EDT    0.98   1.91 -999 -999 -999  62.4 -99.9 1016.6 -9.9 -9.999 -99.9 -99.99 -9.99
2019/10/15 22:54 EDT    0.96   1.88 -999 -999 -999  62.4 -99.9 1016.7 -9.9 -9.999 -99.9 -99.99 -9.99
2019/10/15 23:00 EDT    0.93   1.87 -999 -999 -999  62.5 -99.9 1016.7 -9.9 -9.999 -99.9 -99.99 -9.99
2019/10/15 23:06 EDT    0.91   1.86 -999 -999 -999  62.3 -99.9 1016.6 -9.9 -9.999 -99.9 -99.99 -9.99
2019/10/15 23:12 EDT    0.89   1.85 -999 -999 -999  62.2 -99.9 1016.7 -9.9 -9.999 -99.9 -99.99 -9.99
2019/10/15 23:18 EDT    0.87   1.84 -999 -999 -999  62.2 -99.9 1016.6 -9.9 -9.999 -99.9 -99.99 -9.99
2019/10/15 23:24 EDT    0.85   1.82 -999 -999 -999  62.1 -99.9 1016.5 -9.9 -9.999 -99.9 -99.99 -9.99
2019/10/15 23:30 EDT    0.83   1.81 -999 -999 -999  62.1 -99.9 1016.3 -9.9 -9.999 -99.9 -99.99 -9.99
2019/10/15 23:36 EDT    0.81   1.80 -999 -999 -999  62.0 -99.9 1016.2 -9.9 -9.999 -99.9 -99.99 -9.99
2019/10/15 23:42 EDT    0.79   1.77 -999 -999 -999  62.0 -99.9 1016.2 -9.9 -9.999 -99.9 -99.99 -9.99
2019/10/15 23:48 EDT    0.77   1.75 -999 -999 -999  62.0 -99.9 1016.2 -9.9 -9.999 -99.9 -99.99 -9.99
2019/10/15 23:54 EDT    0.75   1.72 -999 -999 -999  61.8 -99.9 1016.1 -9.9 -9.999 -99.9 -99.99 -9.99
2019/10/16 00:00 EDT    0.73   1.70 -999 -999 -999  61.8 -99.9 1016.0 -9.9 -9.999 -99.9 -99.99 -9.99
2019/10/16 00:06 EDT    0.71   1.69 -999 -999 -999  61.7 -99.9 1016.0 -9.9 -9.999 -99.9 -99.99 -9.99
2019/10/16 00:12 EDT    0.69   1.67 -999 -999 -999  61.6 -99.9 1015.9 -9.9 -9.999 -99.9 -99.99 -9.99
2019/10/16 00:18 EDT    0.68   1.66 -999 -999 -999  61.7 -99.9 1015.8 -9.9 -9.999 -99.9 -99.99 -9.99
2019/10/16 00:24 EDT    0.66   1.66 -999 -999 -999  61.7 -99.9 1015.8 -9.9 -9.999 -99.9 -99.99 -9.99
2019/10/16 00:30 EDT    0.65   1.66 -999 -999 -999  61.7 -99.9 1015.8 -9.9 -9.999 -99.9 -99.99 -9.99
2019/10/16 00:36 EDT    0.63   1.65 -999 -999 -999  61.8 -99.9 1015.8 -9.9 -9.999 -99.9 -99.99 -9.99
2019/10/16 00:42 EDT    0.62   1.64 -999 -999 -999  61.7 -99.9 1015.7 -9.9 -9.999 -99.9 -99.99 -9.99
2019/10/16 00:48 EDT    0.61   1.63 -999 -999 -999  61.7 -99.9 1015.7 -9.9 -9.999 -99.9 -99.99 -9.99
2019/10/16 00:54 EDT    0.60   1.64 -999 -999 -999  61.7 -99.9 1015.7 -9.9 -9.999 -99.9 -99.99 -9.99
2019/10/16 01:00 EDT    0.59   1.64 -999 -999 -999  61.8 -99.9 1015.7 -9.9 -9.999 -99.9 -99.99 -9.99
2019/10/16 01:06 EDT    0.58   1.63 -999 -999 -999  61.8 -99.9 1015.6 -9.9 -9.999 -99.9 -99.99 -9.99
2019/10/16 01:12 EDT    0.57   1.64 -999 -999 -999  62.1 -99.9 1015.6 -9.9 -9.999 -99.9 -99.99 -9.99
2019/10/16 01:18 EDT    0.57   1.64 -999 -999 -999  62.1 -99.9 1015.5 -9.9 -9.999 -99.9 -99.99 -9.99
2019/10/16 01:24 EDT    0.57   1.64 -999 -999 -999  62.1 -99.9 1015.5 -9.9 -9.999 -99.9 -99.99 -9.99
2019/10/16 01:30 EDT    0.56   1.66 -999 -999 -999  62.3 -99.9 1015.3 -9.9 -9.999 -99.9 -99.99 -9.99
2019/10/16 01:36 EDT    0.56   1.67 -999 -999 -999  62.4 -99.9 1015.3 -9.9 -9.999 -99.9 -99.99 -9.99
2019/10/16 01:42 EDT    0.56   1.68 -999 -999 -999  62.4 -99.9 1015.3 -9.9 -9.999 -99.9 -99.99 -9.99
2019/10/16 01:48 EDT    0.56   1.68 -999 -999 -999  62.4 -99.9 1015.2 -9.9 -9.999 -99.9 -99.99 -9.99
2019/10/16 01:54 EDT    0.57   1.69 -999 -999 -999  62.5 -99.9 1015.1 -9.9 -9.999 -99.9 -99.99 -9.99
2019/10/16 02:00 EDT    0.57   1.69 -999 -999 -999  62.6 -99.9 1015.1 -9.9 -9.999 -99.9 -99.99 -9.99
2019/10/16 02:06 EDT    0.58   1.72 -999 -999 -999  62.6 -99.9 1014.9 -9.9 -9.999 -99.9 -99.99 -9.99
2019/10/16 02:12 EDT    0.59   1.72 -999 -999 -999  62.3 -99.9 1014.9 -9.9 -9.999 -99.9 -99.99 -9.99
2019/10/16 02:18 EDT    0.60   1.74 -999 -999 -999  62.5 -99.9 1014.8 -9.9 -9.999 -99.9 -99.99 -9.99
2019/10/16 02:24 EDT    0.61   1.77 -999 -999 -999  62.4 -99.9 1014.7 -9.9 -9.999 -99.9 -99.99 -9.99
2019/10/16 02:30 EDT    0.62   1.80 -999 -999 -999  62.4 -99.9 1014.6 -9.9 -9.999 -99.9 -99.99 -9.99
2019/10/16 02:36 EDT    0.63   1.83 -999 -999 -999  62.7 -99.9 1014.6 -9.9 -9.999 -99.9 -99.99 -9.99
2019/10/16 02:42 EDT    0.65   1.84 -999 -999 -999  62.4 -99.9 1014.6 -9.9 -9.999 -99.9 -99.99 -9.99
2019/10/16 02:48 EDT    0.66   1.86 -999 -999 -999  62.6 -99.9 1014.5 -9.9 -9.999 -99.9 -99.99 -9.99
2019/10/16 02:54 EDT    0.68   1.91 -999 -999 -999  62.5 -99.9 1014.3 -9.9 -9.999 -99.9 -99.99 -9.99
2019/10/16 03:00 EDT    0.69   1.91 -999 -999 -999  62.5 -99.9 1014.2 -9.9 -9.999 -99.9 -99.99 -9.99
2019/10/16 03:06 EDT    0.71   1.93 -999 -999 -999  62.3 -99.9 1014.1 -9.9 -9.999 -99.9 -99.99 -9.99
2019/10/16 03:12 EDT    0.73   1.93 -999 -999 -999  62.3 -99.9 1013.8 -9.9 -9.999 -99.9 -99.99 -9.99
2019/10/16 03:18 EDT    0.75   1.95 -999 -999 -999  62.1 -99.9 1013.7 -9.9 -9.999 -99.9 -99.99 -9.99
2019/10/16 03:24 EDT    0.77   1.98 -999 -999 -999  62.2 -99.9 1013.6 -9.9 -9.999 -99.9 -99.99 -9.99
2019/10/16 03:30 EDT    0.78   2.01 -999 -999 -999  62.4 -99.9 1013.5 -9.9 -9.999 -99.9 -99.99 -9.99
2019/10/16 03:36 EDT    0.80   2.03 -999 -999 -999  62.3 -99.9 1013.4 -9.9 -9.999 -99.9 -99.99 -9.99
2019/10/16 03:42 EDT    0.82   2.05 -999 -999 -999  62.2 -99.9 1013.3 -9.9 -9.999 -99.9 -99.99 -9.99
2019/10/16 03:48 EDT    0.84   2.08 -999 -999 -999  62.1 -99.9 1013.1 -9.9 -9.999 -99.9 -99.99 -9.99
2019/10/16 03:54 EDT    0.86   2.11 -999 -999 -999  62.1 -99.9 1013.0 -9.9 -9.999 -99.9 -99.99 -9.99
2019/10/16 04:00 EDT    0.88   2.13 -999 -999 -999  62.3 -99.9 1013.0 -9.9 -9.999 -99.9 -99.99 -9.99
2019/10/16 04:06 EDT    0.90   2.16 -999 -999 -999  62.6 -99.9 1013.0 -9.9 -9.999 -99.9 -99.99 -9.99
2019/10/16 04:12 EDT    0.92   2.18 -999 -999 -999  62.6 -99.9 1013.0 -9.9 -9.999 -99.9 -99.99 -9.99
2019/10/16 04:18 EDT    0.94   2.20 -999 -999 -999  62.8 -99.9 1013.0 -9.9 -9.999 -99.9 -99.99 -9.99
2019/10/16 04:24 EDT    0.96   2.22 -999 -999 -999  62.8 -99.9 1012.9 -9.9 -9.999 -99.9 -99.99 -9.99
2019/10/16 04:30 EDT    0.98   2.24 -999 -999 -999  62.9 -99.9 1012.9 -9.9 -9.999 -99.9 -99.99 -9.99
2019/10/16 04:36 EDT    1.00   2.27 -999 -999 -999  63.1 -99.9 1013.0 -9.9 -9.999 -99.9 -99.99 -9.99
2019/10/16 04:42 EDT    1.02   2.30 -999 -999 -999  63.1 -99.9 1012.9 -9.9 -9.999 -99.9 -99.99 -9.99
2019/10/16 04:48 EDT    1.03   2.32 -999 -999 -999  63.1 -99.9 1012.8 -9.9 -9.999 -99.9 -99.99 -9.99
2019/10/16 04:54 EDT    1.05   2.34 -999 -999 -999  63.2 -99.9 1012.7 -9.9 -9.999 -99.9 -99.99 -9.99
2019/10/16 05:00 EDT    1.07   2.34 -999 -999 -999  63.2 -99.9 1012.6 -9.9 -9.999 -99.9 -99.99 -9.99
2019/10/16 05:06 EDT    1.08   2.37 -999 -999 -999  63.2 -99.9 1012.5 -9.9 -9.999 -99.9 -99.99 -9.99
2019/10/16 05:12 EDT    1.10   2.38 -999 -999 -999  63.2 -99.9 1012.3 -9.9 -9.999 -99.9 -99.99 -9.99
2019/10/16 05:18 EDT    1.11   2.40 -999 -999 -999  63.2 -99.9 1012.2 -9.9 -9.999 -99.9 -99.99 -9.99
2019/10/16 05:24 EDT    1.13   2.42 -999 -999 -999  63.1 -99.9 1012.1 -9.9 -9.999 -99.9 -99.99 -9.99
2019/10/16 05:30 EDT    1.14   2.45 -999 -999 -999  63.3 -99.9 1012.1 -9.9 -9.999 -99.9 -99.99 -9.99
2019/10/16 05:36 EDT    1.15   2.48 -999 -999 -999  63.3 -99.9 1012.0 -9.9 -9.999 -99.9 -99.99 -9.99
2019/10/16 05:42 EDT    1.17   2.50 -999 -999 -999  63.4 -99.9 1011.9 -9.9 -9.999 -99.9 -99.99 -9.99
2019/10/16 05:48 EDT    1.18   2.52 -999 -999 -999  63.3 -99.9 1011.8 -9.9 -9.999 -99.9 -99.99 -9.99
2019/10/16 05:54 EDT    1.19   2.53 -999 -999 -999  63.4 -99.9 1011.6 -9.9 -9.999 -99.9 -99.99 -9.99
2019/10/16 06:00 EDT    1.20   2.56 -999 -999 -999  63.5 -99.9 1011.5 -9.9 -9.999 -99.9 -99.99 -9.99
2019/10/16 06:06 EDT    1.21   2.57 -999 -999 -999  63.5 -99.9 1011.6 -9.9 -9.999 -99.9 -99.99 -9.99
2019/10/16 06:12 EDT    1.22   2.59 -999 -999 -999  63.5 -99.9 1011.7 -9.9 -9.999 -99.9 -99.99 -9.99
2019/10/16 06:18 EDT    1.23   2.60 -999 -999 -999  63.6 -99.9 1011.7 -9.9 -9.999 -99.9 -99.99 -9.99
2019/10/16 06:24 EDT    1.23   2.61 -999 -999 -999  63.6 -99.9 1011.7 -9.9 -9.999 -99.9 -99.99 -9.99
2019/10/16 06:30 EDT    1.24   2.61 -999 -999 -999  63.4 -99.9 1011.3 -9.9 -9.999 -99.9 -99.99 -9.99
2019/10/16 06:36 EDT    1.24   2.62 -999 -999 -999  63.2 -99.9 1011.1 -9.9 -9.999 -99.9 -99.99 -9.99
2019/10/16 06:42 EDT    1.25   2.63 -999 -999 -999  63.0 -99.9 1011.1 -9.9 -9.999 -99.9 -99.99 -9.99
2019/10/16 06:48 EDT    1.25   2.64 -999 -999 -999  62.8 -99.9 1011.0 -9.9 -9.999 -99.9 -99.99 -9.99
2019/10/16 06:54 EDT    1.25   2.64 -999 -999 -999  62.8 -99.9 1011.1 -9.9 -9.999 -99.9 -99.99 -9.99
2019/10/16 07:00 EDT    1.25   2.65 -999 -999 -999  62.8 -99.9 1011.3 -9.9 -9.999 -99.9 -99.99 -9.99
2019/10/16 07:06 EDT    1.25   2.64 -999 -999 -999  62.7 -99.9 1011.2 -9.9 -9.999 -99.9 -99.99 -9.99
2019/10/16 07:12 EDT    1.25   2.64 -999 -999 -999  62.8 -99.9 1011.4 -9.9 -9.999 -99.9 -99.99 -9.99
2019/10/16 07:18 EDT    1.25   2.65 -999 -999 -999  62.9 -99.9 1011.4 -9.9 -9.999 -99.9 -99.99 -9.99
2019/10/16 07:24 EDT    1.25   2.65 -999 -999 -999  62.6 -99.9 1011.4 -9.9 -9.999 -99.9 -99.99 -9.99
2019/10/16 07:30 EDT    1.24   2.66 -999 -999 -999  62.6 -99.9 1011.5 -9.9 -9.999 -99.9 -99.99 -9.99
2019/10/16 07:36 EDT    1.24   2.66 -999 -999 -999  62.6 -99.9 1011.6 -9.9 -9.999 -99.9 -99.99 -9.99
2019/10/16 07:42 EDT    1.23   2.65 -999 -999 -999  62.7 -99.9 1011.4 -9.9 -9.999 -99.9 -99.99 -9.99
2019/10/16 07:48 EDT    1.22   2.63 -999 -999 -999  62.8 -99.9 1011.3 -9.9 -9.999 -99.9 -99.99 -9.99
2019/10/16 07:54 EDT    1.21   2.62 -999 -999 -999  62.9 -99.9 1011.3 -9.9 -9.999 -99.9 -99.99 -9.99
2019/10/16 08:00 EDT    1.20   2.61 -999 -999 -999  63.1 -99.9 1011.1 -9.9 -9.999 -99.9 -99.99 -9.99
2019/10/16 08:06 EDT    1.19   2.60 -999 -999 -999  63.4 -99.9 1011.0 -9.9 -9.999 -99.9 -99.99 -9.99
2019/10/16 08:12 EDT    1.17   2.58 -999 -999 -999  63.6 -99.9 1010.9 -9.9 -9.999 -99.9 -99.99 -9.99
2019/10/16 08:18 EDT    1.16   2.57 -999 -999 -999  63.8 -99.9 1010.8 -9.9 -9.999 -99.9 -99.99 -9.99
2019/10/16 08:24 EDT    1.14   2.55 -999 -999 -999  63.8 -99.9 1010.7 -9.9 -9.999 -99.9 -99.99 -9.99
2019/10/16 08:30 EDT    1.13   2.53 -999 -999 -999  63.8 -99.9 1010.4 -9.9 -9.999 -99.9 -99.99 -9.99
2019/10/16 08:36 EDT    1.11   2.52 -999 -999 -999  63.8 -99.9 1010.3 -9.9 -9.999 -99.9 -99.99 -9.99
2019/10/16 08:42 EDT    1.09   2.51 -999 -999 -999  64.0 -99.9 1010.3 -9.9 -9.999 -99.9 -99.99 -9.99
2019/10/16 08:48 EDT    1.07   2.49 -999 -999 -999  64.0 -99.9 1010.1 -9.9 -9.999 -99.9 -99.99 -9.99
2019/10/16 08:54 EDT    1.05   2.48 -999 -999 -999  64.1 -99.9 1009.9 -9.9 -9.999 -99.9 -99.99 -9.99
2019/10/16 09:00 EDT    1.03   2.46 -999 -999 -999  64.3 -99.9 1009.8 -9.9 -9.999 -99.9 -99.99 -9.99
2019/10/16 09:06 EDT    1.01   2.44 -999 -999 -999  64.3 -99.9 1009.7 -9.9 -9.999 -99.9 -99.99 -9.99
2019/10/16 09:12 EDT    0.99   2.44 -999 -999 -999  64.4 -99.9 1009.6 -9.9 -9.999 -99.9 -99.99 -9.99
2019/10/16 09:18 EDT    0.97   2.42 -999 -999 -999  64.5 -99.9 1009.3 -9.9 -9.999 -99.9 -99.99 -9.99
2019/10/16 09:24 EDT    0.94   2.41 -999 -999 -999  64.7 -99.9 1009.2 -9.9 -9.999 -99.9 -99.99 -9.99
2019/10/16 09:30 EDT    0.92   2.40 -999 -999 -999  64.7 -99.9 1009.1 -9.9 -9.999 -99.9 -99.99 -9.99
2019/10/16 09:36 EDT    0.90   2.37 -999 -999 -999  64.7 -99.9 1009.0 -9.9 -9.999 -99.9 -99.99 -9.99
2019/10/16 09:42 EDT    0.87   2.35 -999 -999 -999  64.7 -99.9 1008.8 -9.9 -9.999 -99.9 -99.99 -9.99
2019/10/16 09:48 EDT    0.85   2.32 -999 -999 -999  64.7 -99.9 1008.7 -9.9 -9.999 -99.9 -99.99 -9.99
2019/10/16 09:54 EDT    0.83   2.30 -999 -999 -999  64.7 -99.9 1008.7 -9.9 -9.999 -99.9 -99.99 -9.99
2019/10/16 10:00 EDT    0.80   2.28 -999 -999 -999  64.6 -99.9 1008.6 -9.9 -9.999 -99.9 -99.99 -9.99
2019/10/16 10:06 EDT    0.78   2.26 -999 -999 -999  64.2 -99.9 1008.3 -9.9 -9.999 -99.9 -99.99 -9.99
2019/10/16 10:12 EDT    0.76   2.25 -999 -999 -999  64.0 -99.9 1008.1 -9.9 -9.999 -99.9 -99.99 -9.99
2019/10/16 10:18 EDT    0.73   2.23 -999 -999 -999  64.1 -99.9 1008.0 -9.9 -9.999 -99.9 -99.99 -9.99
2019/10/16 10:24 EDT    0.71   2.22 -999 -999 -999  63.9 -99.9 1007.7 -9.9 -9.999 -99.9 -99.99 -9.99
2019/10/16 10:30 EDT    0.69   2.20 -999 -999 -999  63.8 -99.9 1007.2 -9.9 -9.999 -99.9 -99.99 -9.99
2019/10/16 10:36 EDT    0.66   2.17 -999 -999 -999  63.7 -99.9 1006.8 -9.9 -9.999 -99.9 -99.99 -9.99
2019/10/16 10:42 EDT    0.64   2.14 -999 -999 -999  63.8 -99.9 1006.4 -9.9 -9.999 -99.9 -99.99 -9.99
2019/10/16 10:48 EDT    0.62   2.13 -999 -999 -999  63.9 -99.9 1006.5 -9.9 -9.999 -99.9 -99.99 -9.99
2019/10/16 10:54 EDT    0.60   2.12 -999 -999 -999  63.8 -99.9 1006.3 -9.9 -9.999 -99.9 -99.99 -9.99
2019/10/16 11:00 EDT    0.58   2.09 -999 -999 -999  63.7 -99.9 1006.1 -9.9 -9.999 -99.9 -99.99 -9.99
2019/10/16 11:06 EDT    0.55   2.07 -999 -999 -999  63.9 -99.9 1006.0 -9.9 -9.999 -99.9 -99.99 -9.99
2019/10/16 11:12 EDT    0.53   2.04 -999 -999 -999  63.8 -99.9 1006.0 -9.9 -9.999 -99.9 -99.99 -9.99
2019/10/16 11:18 EDT    0.51   2.02 -999 -999 -999  64.0 -99.9 1005.8 -9.9 -9.999 -99.9 -99.99 -9.99
2019/10/16 11:24 EDT    0.49   2.01 -999 -999 -999  64.0 -99.9 1005.4 -9.9 -9.999 -99.9 -99.99 -9.99
2019/10/16 11:30 EDT    0.48   2.00 -999 -999 -999  63.9 -99.9 1005.0 -9.9 -9.999 -99.9 -99.99 -9.99
2019/10/16 11:36 EDT    0.46   1.98 -999 -999 -999  64.0 -99.9 1005.1 -9.9 -9.999 -99.9 -99.99 -9.99
2019/10/16 11:42 EDT    0.44   1.96 -999 -999 -999  64.1 -99.9 1004.9 -9.9 -9.999 -99.9 -99.99 -9.99
2019/10/16 11:48 EDT    0.42   1.93 -999 -999 -999  64.1 -99.9 1004.4 -9.9 -9.999 -99.9 -99.99 -9.99
2019/10/16 11:54 EDT    0.40   1.92 -999 -999 -999  64.4 -99.9 1003.9 -9.9 -9.999 -99.9 -99.99 -9.99
2019/10/16 12:00 EDT    0.39   1.90 -999 -999 -999  64.4 -99.9 1003.7 -9.9 -9.999 -99.9 -99.99 -9.99
2019/10/16 12:06 EDT    0.37   1.90 -999 -999 -999  64.5 -99.9 1003.5 -9.9 -9.999 -99.9 -99.99 -9.99
2019/10/16 12:12 EDT    0.36   1.90 -999 -999 -999  64.5 -99.9 1003.7 -9.9 -9.999 -99.9 -99.99 -9.99
2019/10/16 12:18 EDT    0.34   1.89 -999 -999 -999  64.5 -99.9 1003.5 -9.9 -9.999 -99.9 -99.99 -9.99
2019/10/16 12:24 EDT    0.33   1.88 -999 -999 -999  64.5 -99.9 1003.4 -9.9 -9.999 -99.9 -99.99 -9.99
2019/10/16 12:30 EDT    0.32   1.88 -999 -999 -999  64.6 -99.9 1003.4 -9.9 -9.999 -99.9 -99.99 -9.99
2019/10/16 12:36 EDT    0.31   1.88 -999 -999 -999  64.7 -99.9 1003.2 -9.9 -9.999 -99.9 -99.99 -9.99
2019/10/16 12:42 EDT    0.30   1.90 -999 -999 -999  64.9 -99.9 1003.2 -9.9 -9.999 -99.9 -99.99 -9.99
2019/10/16 12:48 EDT    0.29   1.92 -999 -999 -999  65.0 -99.9 1002.9 -9.9 -9.999 -99.9 -99.99 -9.99
2019/10/16 12:54 EDT    0.28   1.92 -999 -999 -999  64.8 -99.9 1002.4 -9.9 -9.999 -99.9 -99.99 -9.99
2019/10/16 13:00 EDT    0.27   1.92 -999 -999 -999  64.8 -99.9 1002.5 -9.9 -9.999 -99.9 -99.99 -9.99
2019/10/16 13:06 EDT    0.27   1.94 -999 -999 -999  64.7 -99.9 1003.0 -9.9 -9.999 -99.9 -99.99 -9.99
2019/10/16 13:12 EDT    0.26   1.94 -999 -999 -999  64.6 -99.9 1003.0 -9.9 -9.999 -99.9 -99.99 -9.99
2019/10/16 13:18 EDT    0.26   1.93 -999 -999 -999  64.4 -99.9 1003.2 -9.9 -9.999 -99.9 -99.99 -9.99
2019/10/16 13:24 EDT    0.26   1.92 -999 -999 -999  63.9 -99.9 1003.1 -9.9 -9.999 -99.9 -99.99 -9.99
2019/10/16 13:30 EDT    0.26   1.93 -999 -999 -999  63.5 -99.9 1003.1 -9.9 -9.999 -99.9 -99.99 -9.99
2019/10/16 13:36 EDT    0.26   1.93 -999 -999 -999  62.9 -99.9 1002.7 -9.9 -9.999 -99.9 -99.99 -9.99
2019/10/16 13:42 EDT    0.27   1.94 -999 -999 -999  62.8 -99.9 1002.0 -9.9 -9.999 -99.9 -99.99 -9.99
2019/10/16 13:48 EDT    0.27   1.97 -999 -999 -999  62.5 -99.9 1001.6 -9.9 -9.999 -99.9 -99.99 -9.99
2019/10/16 13:54 EDT    0.28   2.01 -999 -999 -999  62.2 -99.9 1001.3 -9.9 -9.999 -99.9 -99.99 -9.99
2019/10/16 14:00 EDT    0.28   2.07 -999 -999 -999  62.1 -99.9 1001.0 -9.9 -9.999 -99.9 -99.99 -9.99
2019/10/16 14:06 EDT    0.29   2.11 -999 -999 -999  62.1 -99.9 1000.7 -9.9 -9.999 -99.9 -99.99 -9.99
2019/10/16 14:12 EDT    0.31   2.14 -999 -999 -999  61.9 -99.9 1000.4 -9.9 -9.999 -99.9 -99.99 -9.99
2019/10/16 14:18 EDT    0.32   2.16 -999 -999 -999  61.8 -99.9 1000.3 -9.9 -9.999 -99.9 -99.99 -9.99
2019/10/16 14:24 EDT    0.33   2.18 -999 -999 -999  61.6 -99.9  999.8 -9.9 -9.999 -99.9 -99.99 -9.99
2019/10/16 14:30 EDT    0.35   2.21 -999 -999 -999  61.5 -99.9  999.9 -9.9 -9.999 -99.9 -99.99 -9.99
2019/10/16 14:36 EDT    0.37   2.23 -999 -999 -999  61.6 -99.9  999.7 -9.9 -9.999 -99.9 -99.99 -9.99
2019/10/16 14:42 EDT    0.39   2.25 -999 -999 -999  61.4 -99.9  999.1 -9.9 -9.999 -99.9 -99.99 -9.99
2019/10/16 14:48 EDT    0.41   2.26 -999 -999 -999  61.4 -99.9  999.0 -9.9 -9.999 -99.9 -99.99 -9.99
2019/10/16 14:54 EDT    0.43   2.29 -999 -999 -999  61.4 -99.9  998.9 -9.9 -9.999 -99.9 -99.99 -9.99
2019/10/16 15:00 EDT    0.45   2.36 -999 -999 -999  61.1 -99.9  999.0 -9.9 -9.999 -99.9 -99.99 -9.99
2019/10/16 15:06 EDT    0.48   2.40 -999 -999 -999  61.1 -99.9  998.7 -9.9 -9.999 -99.9 -99.99 -9.99
2019/10/16 15:12 EDT    0.50   2.43 -999 -999 -999  61.1 -99.9  998.6 -9.9 -9.999 -99.9 -99.99 -9.99
2019/10/16 15:18 EDT    0.53   2.49 -999 -999 -999  61.0 -99.9  998.4 -9.9 -9.999 -99.9 -99.99 -9.99
2019/10/16 15:24 EDT    0.56   2.51 -999 -999 -999  61.0 -99.9  998.3 -9.9 -9.999 -99.9 -99.99 -9.99
2019/10/16 15:30 EDT    0.59   2.56 -999 -999 -999  61.0 -99.9  998.0 -9.9 -9.999 -99.9 -99.99 -9.99
2019/10/16 15:36 EDT    0.62   2.61 -999 -999 -999  61.4 -99.9  997.9 -9.9 -9.999 -99.9 -99.99 -9.99
2019/10/16 15:42 EDT    0.65   2.67 -999 -999 -999  61.0 -99.9  997.8 -9.9 -9.999 -99.9 -99.99 -9.99
2019/10/16 15:48 EDT    0.68   2.73 -999 -999 -999  60.9 -99.9  997.3 -9.9 -9.999 -99.9 -99.99 -9.99
2019/10/16 15:54 EDT    0.71   2.77 -999 -999 -999  60.4 -99.9  997.4 -9.9 -9.999 -99.9 -99.99 -9.99
2019/10/16 16:00 EDT    0.74   2.80 -999 -999 -999  60.4 -99.9  997.6 -9.9 -9.999 -99.9 -99.99 -9.99
2019/10/16 16:06 EDT    0.77   2.83 -999 -999 -999  60.5 -99.9  997.5 -9.9 -9.999 -99.9 -99.99 -9.99
2019/10/16 16:12 EDT    0.80   2.84 -999 -999 -999  60.5 -99.9  997.5 -9.9 -9.999 -99.9 -99.99 -9.99
2019/10/16 16:18 EDT    0.83   2.87 -999 -999 -999  60.5 -99.9  997.8 -9.9 -9.999 -99.9 -99.99 -9.99
2019/10/16 16:24 EDT    0.86   2.88 -999 -999 -999  60.4 -99.9  997.7 -9.9 -9.999 -99.9 -99.99 -9.99
2019/10/16 16:30 EDT    0.89   2.89 -999 -999 -999  60.3 -99.9  997.7 -9.9 -9.999 -99.9 -99.99 -9.99
2019/10/16 16:36 EDT    0.92   2.93 -999 -999 -999  60.5 -99.9  997.6 -9.9 -9.999 -99.9 -99.99 -9.99
2019/10/16 16:42 EDT    0.95   2.98 -999 -999 -999  60.5 -99.9  997.6 -9.9 -9.999 -99.9 -99.99 -9.99
2019/10/16 16:48 EDT    0.98   3.04 -999 -999 -999  60.3 -99.9  997.5 -9.9 -9.999 -99.9 -99.99 -9.99
2019/10/16 16:54 EDT    1.01   3.10 -999 -999 -999  60.2 -99.9  997.5 -9.9 -9.999 -99.9 -99.99 -9.99
2019/10/16 17:00 EDT    1.04   3.15 -999 -999 -999  60.2 -99.9  997.4 -9.9 -9.999 -99.9 -99.99 -9.99
2019/10/16 17:06 EDT    1.07   3.18 -999 -999 -999  60.2 -99.9  997.1 -9.9 -9.999 -99.9 -99.99 -9.99
2019/10/16 17:12 EDT    1.10   3.21 -999 -999 -999  60.1 -99.9  997.0 -9.9 -9.999 -99.9 -99.99 -9.99
2019/10/16 17:18 EDT    1.13   3.22 -999 -999 -999  60.0 -99.9  997.1 -9.9 -9.999 -99.9 -99.99 -9.99
2019/10/16 17:24 EDT    1.15   3.26 -999 -999 -999  60.0 -99.9  997.1 -9.9 -9.999 -99.9 -99.99 -9.99
2019/10/16 17:30 EDT    1.18   3.27 -999 -999 -999  59.9 -99.9  997.1 -9.9 -9.999 -99.9 -99.99 -9.99
2019/10/16 17:36 EDT    1.21   3.28 -999 -999 -999  59.6 -99.9  997.2 -9.9 -9.999 -99.9 -99.99 -9.99
2019/10/16 17:42 EDT    1.23   3.29 -999 -999 -999  59.6 -99.9  997.3 -9.9 -9.999 -99.9 -99.99 -9.99
2019/10/16 17:48 EDT    1.26   3.30 -999 -999 -999  59.5 -99.9  997.2 -9.9 -9.999 -99.9 -99.99 -9.99
2019/10/16 17:54 EDT    1.28   3.32 -999 -999 -999  59.4 -99.9  997.3 -9.9 -9.999 -99.9 -99.99 -9.99
2019/10/16 18:00 EDT    1.30   3.35 -999 -999 -999  59.1 -99.9  997.3 -9.9 -9.999 -99.9 -99.99 -9.99
2019/10/16 18:06 EDT    1.33   3.37 -999 -999 -999  58.9 -99.9  997.4 -9.9 -9.999 -99.9 -99.99 -9.99
2019/10/16 18:12 EDT    1.35   3.39 -999 -999 -999  58.8 -99.9  997.5 -9.9 -9.999 -99.9 -99.99 -9.99
2019/10/16 18:18 EDT    1.37   3.35 -999 -999 -999  58.8 -99.9  997.5 -9.9 -9.999 -99.9 -99.99 -9.99
2019/10/16 18:24 EDT    1.39   3.34 -999 -999 -999  58.5 -99.9  997.7 -9.9 -9.999 -99.9 -99.99 -9.99
2019/10/16 18:30 EDT    1.41   3.33 -999 -999 -999  58.2 -99.9  997.7 -9.9 -9.999 -99.9 -99.99 -9.99
2019/10/16 18:36 EDT    1.42   3.32 -999 -999 -999  58.1 -99.9  997.8 -9.9 -9.999 -99.9 -99.99 -9.99
2019/10/16 18:42 EDT    1.44   3.32 -999 -999 -999  58.1 -99.9  997.8 -9.9 -9.999 -99.9 -99.99 -9.99
2019/10/16 18:48 EDT    1.46   3.31 -999 -999 -999  57.9 -99.9  997.9 -9.9 -9.999 -99.9 -99.99 -9.99
2019/10/16 18:54 EDT    1.47   3.30 -999 -999 -999  57.9 -99.9  997.9 -9.9 -9.999 -99.9 -99.99 -9.99
2019/10/16 19:00 EDT    1.49   3.29 -999 -999 -999  57.9 -99.9  998.1 -9.9 -9.999 -99.9 -99.99 -9.99
2019/10/16 19:06 EDT    1.50   3.27 -999 -999 -999  57.8 -99.9  998.2 -9.9 -9.999 -99.9 -99.99 -9.99
2019/10/16 19:12 EDT    1.51   3.26 -999 -999 -999  57.5 -99.9  998.3 -9.9 -9.999 -99.9 -99.99 -9.99
2019/10/16 19:18 EDT    1.52   3.26 -999 -999 -999  57.2 -99.9  998.3 -9.9 -9.999 -99.9 -99.99 -9.99
2019/10/16 19:24 EDT    1.53   3.26 -999 -999 -999  57.0 -99.9  998.4 -9.9 -9.999 -99.9 -99.99 -9.99
2019/10/16 19:30 EDT    1.54   3.25 -999 -999 -999  56.9 -99.9  998.5 -9.9 -9.999 -99.9 -99.99 -9.99
2019/10/16 19:36 EDT    1.55   3.24 -999 -999 -999  56.7 -99.9  998.5 -9.9 -9.999 -99.9 -99.99 -9.99
2019/10/16 19:42 EDT    1.55   3.22 -999 -999 -999  56.5 -99.9  998.6 -9.9 -9.999 -99.9 -99.99 -9.99
2019/10/16 19:48 EDT    1.55   3.20 -999 -999 -999  56.4 -99.9  998.7 -9.9 -9.999 -99.9 -99.99 -9.99
2019/10/16 19:54 EDT    1.56   3.17 -999 -999 -999  56.3 -99.9  998.8 -9.9 -9.999 -99.9 -99.99 -9.99
2019/10/16 20:00 EDT    1.56   3.17 -999 -999 -999  56.0 -99.9  998.8 -9.9 -9.999 -99.9 -99.99 -9.99
2019/10/16 20:06 EDT    1.56   3.18 -999 -999 -999  55.9 -99.9  998.8 -9.9 -9.999 -99.9 -99.99 -9.99
2019/10/16 20:12 EDT    1.56   3.18 -999 -999 -999  55.6 -99.9  998.8 -9.9 -9.999 -99.9 -99.99 -9.99
2019/10/16 20:18 EDT    1.55   3.15 -999 -999 -999  55.5 -99.9  998.8 -9.9 -9.999 -99.9 -99.99 -9.99
2019/10/16 20:24 EDT    1.55   3.10 -999 -999 -999  55.4 -99.9  998.9 -9.9 -9.999 -99.9 -99.99 -9.99
2019/10/16 20:30 EDT    1.54   3.07 -999 -999 -999  55.3 -99.9  998.9 -9.9 -9.999 -99.9 -99.99 -9.99
2019/10/16 20:36 EDT    1.54   3.05 -999 -999 -999  55.4 -99.9  998.9 -9.9 -9.999 -99.9 -99.99 -9.99
2019/10/16 20:42 EDT    1.53   3.03 -999 -999 -999  55.2 -99.9  998.9 -9.9 -9.999 -99.9 -99.99 -9.99
2019/10/16 20:48 EDT    1.52   3.02 -999 -999 -999  55.0 -99.9  999.0 -9.9 -9.999 -99.9 -99.99 -9.99
2019/10/16 20:54 EDT    1.51   3.00 -999 -999 -999  55.1 -99.9  999.1 -9.9 -9.999 -99.9 -99.99 -9.99
2019/10/16 21:00 EDT    1.49   2.96 -999 -999 -999  55.1 -99.9  999.2 -9.9 -9.999 -99.9 -99.99 -9.99
2019/10/16 21:06 EDT    1.48   2.93 -999 -999 -999  54.8 -99.9  999.2 -9.9 -9.999 -99.9 -99.99 -9.99
2019/10/16 21:12 EDT    1.47   2.93 -999 -999 -999  54.7 -99.9  999.2 -9.9 -9.999 -99.9 -99.99 -9.99
2019/10/16 21:18 EDT    1.45   2.93 -999 -999 -999  54.7 -99.9  999.2 -9.9 -9.999 -99.9 -99.99 -9.99
2019/10/16 21:24 EDT    1.43   2.91 -999 -999 -999  54.7 -99.9  999.3 -9.9 -9.999 -99.9 -99.99 -9.99
2019/10/16 21:30 EDT    1.42   2.90 -999 -999 -999  54.8 -99.9  999.3 -9.9 -9.999 -99.9 -99.99 -9.99
2019/10/16 21:36 EDT    1.40   2.87 -999 -999 -999  54.9 -99.9  999.4 -9.9 -9.999 -99.9 -99.99 -9.99
2019/10/16 21:42 EDT    1.38   2.84 -999 -999 -999  54.9 -99.9  999.5 -9.9 -9.999 -99.9 -99.99 -9.99
2019/10/16 21:48 EDT    1.36   2.81 -999 -999 -999  54.9 -99.9  999.5 -9.9 -9.999 -99.9 -99.99 -9.99
2019/10/16 21:54 EDT    1.34   2.75 -999 -999 -999  54.8 -99.9  999.6 -9.9 -9.999 -99.9 -99.99 -9.99
2019/10/16 22:00 EDT    1.32   2.70 -999 -999 -999  54.6 -99.9  999.5 -9.9 -9.999 -99.9 -99.99 -9.99
2019/10/16 22:06 EDT    1.30   2.66 -999 -999 -999  54.5 -99.9  999.4 -9.9 -9.999 -99.9 -99.99 -9.99
2019/10/16 22:12 EDT    1.28   2.62 -999 -999 -999  54.5 -99.9  999.5 -9.9 -9.999 -99.9 -99.99 -9.99
2019/10/16 22:18 EDT    1.26   2.59 -999 -999 -999  54.2 -99.9  999.5 -9.9 -9.999 -99.9 -99.99 -9.99
2019/10/16 22:24 EDT    1.24   2.54 -999 -999 -999  54.2 -99.9  999.5 -9.9 -9.999 -99.9 -99.99 -9.99
2019/10/16 22:30 EDT    1.21   2.51 -999 -999 -999  54.0 -99.9  999.5 -9.9 -9.999 -99.9 -99.99 -9.99
2019/10/16 22:36 EDT    1.19   2.48 -999 -999 -999  54.0 -99.9  999.6 -9.9 -9.999 -99.9 -99.99 -9.99
2019/10/16 22:42 EDT    1.17   2.43 -999 -999 -999  53.9 -99.9  999.7 -9.9 -9.999 -99.9 -99.99 -9.99
2019/10/16 22:48 EDT    1.15   2.38 -999 -999 -999  54.0 -99.9  999.8 -9.9 -9.999 -99.9 -99.99 -9.99
2019/10/16 22:54 EDT    1.13   2.33 -999 -999 -999  53.8 -99.9  999.7 -9.9 -9.999 -99.9 -99.99 -9.99
2019/10/16 23:00 EDT    1.10   2.31 -999 -999 -999  53.7 -99.9  999.8 -9.9 -9.999 -99.9 -99.99 -9.99
2019/10/16 23:06 EDT    1.08   2.27 -999 -999 -999  53.5 -99.9  999.7 -9.9 -9.999 -99.9 -99.99 -9.99
2019/10/16 23:12 EDT    1.06   2.22 -999 -999 -999  53.5 -99.9  999.6 -9.9 -9.999 -99.9 -99.99 -9.99
2019/10/16 23:18 EDT    1.04   2.17 -999 -999 -999  53.4 -99.9  999.5 -9.9 -9.999 -99.9 -99.99 -9.99
2019/10/16 23:24 EDT    1.02   2.10 -999 -999 -999  53.3 -99.9  999.7 -9.9 -9.999 -99.9 -99.99 -9.99
2019/10/16 23:30 EDT    0.99   2.05 -999 -999 -999  53.1 -99.9  999.8 -9.9 -9.999 -99.9 -99.99 -9.99
2019/10/16 23:36 EDT    0.97   2.02 -999 -999 -999  52.9 -99.9  999.9 -9.9 -9.999 -99.9 -99.99 -9.99
2019/10/16 23:42 EDT    0.95   2.01 -999 -999 -999  52.8 -99.9  999.8 -9.9 -9.999 -99.9 -99.99 -9.99
2019/10/16 23:48 EDT    0.93   1.98 -999 -999 -999  52.7 -99.9  999.8 -9.9 -9.999 -99.9 -99.99 -9.99
2019/10/16 23:54 EDT    0.91   1.95 -999 -999 -999  52.6 -99.9  999.8 -9.9 -9.999 -99.9 -99.99 -9.99
2019/10/17 00:00 EDT    0.89   1.93 -999 -999 -999  52.5 -99.9  999.8 -9.9 -9.999 -99.9 -99.99 -9.99
2019/10/17 00:06 EDT    0.87   1.90 -999 -999 -999  52.5 -99.9  999.8 -9.9 -9.999 -99.9 -99.99 -9.99
2019/10/17 00:12 EDT    0.85   1.87 -999 -999 -999  52.4 -99.9  999.7 -9.9 -9.999 -99.9 -99.99 -9.99
2019/10/17 00:18 EDT    0.83   1.85 -999 -999 -999  52.5 -99.9  999.8 -9.9 -9.999 -99.9 -99.99 -9.99
2019/10/17 00:24 EDT    0.81   1.83 -999 -999 -999  52.3 -99.9  999.8 -9.9 -9.999 -99.9 -99.99 -9.99
2019/10/17 00:30 EDT    0.79   1.80 -999 -999 -999  52.2 -99.9  999.8 -9.9 -9.999 -99.9 -99.99 -9.99
2019/10/17 00:36 EDT    0.77   1.78 -999 -999 -999  52.1 -99.9  999.9 -9.9 -9.999 -99.9 -99.99 -9.99
2019/10/17 00:42 EDT    0.75   1.73 -999 -999 -999  52.1 -99.9 1000.0 -9.9 -9.999 -99.9 -99.99 -9.99
2019/10/17 00:48 EDT    0.74   1.70 -999 -999 -999  52.1 -99.9 1000.0 -9.9 -9.999 -99.9 -99.99 -9.99
2019/10/17 00:54 EDT    0.72   1.68 -999 -999 -999  52.4 -99.9 1000.0 -9.9 -9.999 -99.9 -99.99 -9.99
2019/10/17 01:00 EDT    0.71   1.64 -999 -999 -999  52.3 -99.9 1000.1 -9.9 -9.999 -99.9 -99.99 -9.99
2019/10/17 01:06 EDT    0.69   1.61 -999 -999 -999  52.1 -99.9 1000.0 -9.9 -9.999 -99.9 -99.99 -9.99
2019/10/17 01:12 EDT    0.68   1.58 -999 -999 -999  52.0 -99.9 1000.1 -9.9 -9.999 -99.9 -99.99 -9.99
2019/10/17 01:18 EDT    0.66   1.56 -999 -999 -999  52.0 -99.9 1000.0 -9.9 -9.999 -99.9 -99.99 -9.99
2019/10/17 01:24 EDT    0.65   1.56 -999 -999 -999  52.3 -99.9 1000.0 -9.9 -9.999 -99.9 -99.99 -9.99
2019/10/17 01:30 EDT    0.64   1.57 -999 -999 -999  52.2 -99.9 1000.0 -9.9 -9.999 -99.9 -99.99 -9.99
2019/10/17 01:36 EDT    0.63   1.56 -999 -999 -999  52.0 -99.9 1000.0 -9.9 -9.999 -99.9 -99.99 -9.99
2019/10/17 01:42 EDT    0.62   1.54 -999 -999 -999  52.1 -99.9 1000.0 -9.9 -9.999 -99.9 -99.99 -9.99
2019/10/17 01:48 EDT    0.61   1.52 -999 -999 -999  52.0 -99.9 1000.0 -9.9 -9.999 -99.9 -99.99 -9.99
2019/10/17 01:54 EDT    0.60   1.48 -999 -999 -999  52.2 -99.9 1000.0 -9.9 -9.999 -99.9 -99.99 -9.99
2019/10/17 02:00 EDT    0.60   1.44 -999 -999 -999  52.2 -99.9 1000.0 -9.9 -9.999 -99.9 -99.99 -9.99
2019/10/17 02:06 EDT    0.59   1.42 -999 -999 -999  52.5 -99.9 1000.1 -9.9 -9.999 -99.9 -99.99 -9.99
2019/10/17 02:12 EDT    0.59   1.39 -999 -999 -999  52.5 -99.9 1000.1 -9.9 -9.999 -99.9 -99.99 -9.99
2019/10/17 02:18 EDT    0.59   1.36 -999 -999 -999  52.5 -99.9 1000.1 -9.9 -9.999 -99.9 -99.99 -9.99
2019/10/17 02:24 EDT    0.59   1.34 -999 -999 -999  52.5 -99.9 1000.1 -9.9 -9.999 -99.9 -99.99 -9.99
2019/10/17 02:30 EDT    0.59   1.32 -999 -999 -999  52.5 -99.9 1000.1 -9.9 -9.999 -99.9 -99.99 -9.99
2019/10/17 02:36 EDT    0.59   1.30 -999 -999 -999  52.4 -99.9 1000.2 -9.9 -9.999 -99.9 -99.99 -9.99
2019/10/17 02:42 EDT    0.59   1.27 -999 -999 -999  52.2 -99.9 1000.2 -9.9 -9.999 -99.9 -99.99 -9.99
2019/10/17 02:48 EDT    0.60   1.26 -999 -999 -999  52.3 -99.9 1000.1 -9.9 -9.999 -99.9 -99.99 -9.99
2019/10/17 02:54 EDT    0.61   1.24 -999 -999 -999  52.4 -99.9 1000.0 -9.9 -9.999 -99.9 -99.99 -9.99
2019/10/17 03:00 EDT    0.61   1.19 -999 -999 -999  52.8 -99.9 1000.0 -9.9 -9.999 -99.9 -99.99 -9.99
2019/10/17 03:06 EDT    0.62   1.17 -999 -999 -999  52.9 -99.9 1000.0 -9.9 -9.999 -99.9 -99.99 -9.99
2019/10/17 03:12 EDT    0.63   1.16 -999 -999 -999  53.0 -99.9  999.9 -9.9 -9.999 -99.9 -99.99 -9.99
2019/10/17 03:18 EDT    0.65   1.15 -999 -999 -999  53.0 -99.9  999.8 -9.9 -9.999 -99.9 -99.99 -9.99
2019/10/17 03:24 EDT    0.66   1.15 -999 -999 -999  53.1 -99.9  999.9 -9.9 -9.999 -99.9 -99.99 -9.99
2019/10/17 03:30 EDT    0.67   1.13 -999 -999 -999  53.1 -99.9  999.9 -9.9 -9.999 -99.9 -99.99 -9.99
2019/10/17 03:36 EDT    0.69   1.10 -999 -999 -999  53.3 -99.9  999.8 -9.9 -9.999 -99.9 -99.99 -9.99
2019/10/17 03:42 EDT    0.70   1.09 -999 -999 -999  53.2 -99.9  999.7 -9.9 -9.999 -99.9 -99.99 -9.99
2019/10/17 03:48 EDT    0.72   1.07 -999 -999 -999  53.2 -99.9  999.7 -9.9 -9.999 -99.9 -99.99 -9.99
2019/10/17 03:54 EDT    0.74   1.07 -999 -999 -999  53.3 -99.9  999.7 -9.9 -9.999 -99.9 -99.99 -9.99
2019/10/17 04:00 EDT    0.75   1.08 -999 -999 -999  53.5 -99.9  999.5 -9.9 -9.999 -99.9 -99.99 -9.99
2019/10/17 04:06 EDT    0.77   1.08 -999 -999 -999  53.6 -99.9  999.5 -9.9 -9.999 -99.9 -99.99 -9.99
2019/10/17 04:12 EDT    0.79   1.11 -999 -999 -999  53.4 -99.9  999.7 -9.9 -9.999 -99.9 -99.99 -9.99
2019/10/17 04:18 EDT    0.81   1.08 -999 -999 -999  53.6 -99.9  999.8 -9.9 -9.999 -99.9 -99.99 -9.99
2019/10/17 04:24 EDT    0.83   1.06 -999 -999 -999  53.8 -99.9  999.8 -9.9 -9.999 -99.9 -99.99 -9.99
2019/10/17 04:30 EDT    0.84   1.08 -999 -999 -999  53.7 -99.9  999.9 -9.9 -9.999 -99.9 -99.99 -9.99
2019/10/17 04:36 EDT    0.86   1.07 -999 -999 -999  53.8 -99.9  999.9 -9.9 -9.999 -99.9 -99.99 -9.99
2019/10/17 04:42 EDT    0.88   1.10 -999 -999 -999  54.3 -99.9 1000.0 -9.9 -9.999 -99.9 -99.99 -9.99
2019/10/17 04:48 EDT    0.90   1.13 -999 -999 -999  54.3 -99.9 1000.1 -9.9 -9.999 -99.9 -99.99 -9.99
2019/10/17 04:54 EDT    0.92   1.11 -999 -999 -999  54.2 -99.9 1000.2 -9.9 -9.999 -99.9 -99.99 -9.99
2019/10/17 05:00 EDT    0.94   1.11 -999 -999 -999  54.0 -99.9 1000.2 -9.9 -9.999 -99.9 -99.99 -9.99
2019/10/17 05:06 EDT    0.95   1.13 -999 -999 -999  54.2 -99.9 1000.3 -9.9 -9.999 -99.9 -99.99 -9.99
2019/10/17 05:12 EDT    0.97   1.13 -999 -999 -999  54.5 -99.9 1000.4 -9.9 -9.999 -99.9 -99.99 -9.99
2019/10/17 05:18 EDT    0.99   1.13 -999 -999 -999  54.5 -99.9 1000.4 -9.9 -9.999 -99.9 -99.99 -9.99
2019/10/17 05:24 EDT    1.00   1.14 -999 -999 -999  54.8 -99.9 1000.5 -9.9 -9.999 -99.9 -99.99 -9.99
2019/10/17 05:30 EDT    1.02   1.15 -999 -999 -999  54.8 -99.9 1000.6 -9.9 -9.999 -99.9 -99.99 -9.99
2019/10/17 05:36 EDT    1.04   1.15 -999 -999 -999  54.8 -99.9 1000.6 -9.9 -9.999 -99.9 -99.99 -9.99
2019/10/17 05:42 EDT    1.05   1.13 -999 -999 -999  54.5 -99.9 1000.6 -9.9 -9.999 -99.9 -99.99 -9.99
2019/10/17 05:48 EDT    1.06   1.15 -999 -999 -999  54.6 -99.9 1000.6 -9.9 -9.999 -99.9 -99.99 -9.99
2019/10/17 05:54 EDT    1.08   1.17 -999 -999 -999  54.6 -99.9 1000.7 -9.9 -9.999 -99.9 -99.99 -9.99
2019/10/17 06:00 EDT    1.09   1.18 -999 -999 -999  54.2 -99.9 1000.7 -9.9 -9.999 -99.9 -99.99 -9.99
2019/10/17 06:06 EDT    1.10   1.20 -999 -999 -999  53.9 -99.9 1000.8 -9.9 -9.999 -99.9 -99.99 -9.99
2019/10/17 06:12 EDT    1.11   1.21 -999 -999 -999  53.9 -99.9 1000.9 -9.9 -9.999 -99.9 -99.99 -9.99
2019/10/17 06:18 EDT    1.13   1.20 -999 -999 -999  53.9 -99.9 1000.9 -9.9 -9.999 -99.9 -99.99 -9.99
2019/10/17 06:24 EDT    1.14   1.16 -999 -999 -999  54.0 -99.9 1001.0 -9.9 -9.999 -99.9 -99.99 -9.99
2019/10/17 06:30 EDT    1.15   1.15 -999 -999 -999  54.0 -99.9 1000.9 -9.9 -9.999 -99.9 -99.99 -9.99
2019/10/17 06:36 EDT    1.15   1.15 -999 -999 -999  53.8 -99.9 1000.9 -9.9 -9.999 -99.9 -99.99 -9.99
2019/10/17 06:42 EDT    1.16   1.15 -999 -999 -999  53.8 -99.9 1000.9 -9.9 -9.999 -99.9 -99.99 -9.99
2019/10/17 06:48 EDT    1.17   1.17 -999 -999 -999  53.8 -99.9 1000.9 -9.9 -9.999 -99.9 -99.99 -9.99
2019/10/17 06:54 EDT    1.18   1.17 -999 -999 -999  53.8 -99.9 1001.0 -9.9 -9.999 -99.9 -99.99 -9.99
2019/10/17 07:00 EDT    1.18   1.14 -999 -999 -999  53.8 -99.9 1001.0 -9.9 -9.999 -99.9 -99.99 -9.99
2019/10/17 07:06 EDT    1.19   1.15 -999 -999 -999  53.9 -99.9 1001.0 -9.9 -9.999 -99.9 -99.99 -9.99
2019/10/17 07:12 EDT    1.19   1.16 -999 -999 -999  53.7 -99.9 1000.8 -9.9 -9.999 -99.9 -99.99 -9.99
2019/10/17 07:18 EDT    1.19   1.12 -999 -999 -999  53.6 -99.9 1000.9 -9.9 -9.999 -99.9 -99.99 -9.99
2019/10/17 07:24 EDT    1.20   1.09 -999 -999 -999  53.7 -99.9 1001.0 -9.9 -9.999 -99.9 -99.99 -9.99
2019/10/17 07:30 EDT    1.20   1.07 -999 -999 -999  53.6 -99.9 1001.1 -9.9 -9.999 -99.9 -99.99 -9.99
2019/10/17 07:36 EDT    1.20   1.08 -999 -999 -999  53.6 -99.9 1001.3 -9.9 -9.999 -99.9 -99.99 -9.99
2019/10/17 07:42 EDT    1.20   1.06 -999 -999 -999  53.8 -99.9 1001.3 -9.9 -9.999 -99.9 -99.99 -9.99
2019/10/17 07:48 EDT    1.20   1.05 -999 -999 -999  53.7 -99.9 1001.5 -9.9 -9.999 -99.9 -99.99 -9.99
2019/10/17 07:54 EDT    1.19   1.03 -999 -999 -999  53.8 -99.9 1001.5 -9.9 -9.999 -99.9 -99.99 -9.99
2019/10/17 08:00 EDT    1.19   0.99 -999 -999 -999  53.9 -99.9 1001.5 -9.9 -9.999 -99.9 -99.99 -9.99
2019/10/17 08:06 EDT    1.18   0.99 -999 -999 -999  53.8 -99.9 1001.6 -9.9 -9.999 -99.9 -99.99 -9.99
2019/10/17 08:12 EDT    1.18   0.98 -999 -999 -999  54.1 -99.9 1001.7 -9.9 -9.999 -99.9 -99.99 -9.99
2019/10/17 08:18 EDT    1.17   0.97 -999 -999 -999  55.0 -99.9 1001.8 -9.9 -9.999 -99.9 -99.99 -9.99
2019/10/17 08:24 EDT    1.16   0.95 -999 -999 -999  54.6 -99.9 1001.9 -9.9 -9.999 -99.9 -99.99 -9.99
2019/10/17 08:30 EDT    1.15   0.94 -999 -999 -999  54.7 -99.9 1002.0 -9.9 -9.999 -99.9 -99.99 -9.99
2019/10/17 08:36 EDT    1.14   0.91 -999 -999 -999  54.6 -99.9 1002.1 -9.9 -9.999 -99.9 -99.99 -9.99
2019/10/17 08:42 EDT    1.13   0.88 -999 -999 -999  54.8 -99.9 1002.2 -9.9 -9.999 -99.9 -99.99 -9.99
2019/10/17 08:48 EDT    1.12   0.87 -999 -999 -999  56.0 -99.9 1002.2 -9.9 -9.999 -99.9 -99.99 -9.99
2019/10/17 08:54 EDT    1.11   0.86 -999 -999 -999  56.4 -99.9 1002.1 -9.9 -9.999 -99.9 -99.99 -9.99
2019/10/17 09:00 EDT    1.09   0.85 -999 -999 -999  55.9 -99.9 1002.1 -9.9 -9.999 -99.9 -99.99 -9.99
2019/10/17 09:06 EDT    1.07   0.84 -999 -999 -999  56.3 -99.9 1002.0 -9.9 -9.999 -99.9 -99.99 -9.99
2019/10/17 09:12 EDT    1.06   0.81 -999 -999 -999  56.1 -99.9 1002.1 -9.9 -9.999 -99.9 -99.99 -9.99
2019/10/17 09:18 EDT    1.04   0.80 -999 -999 -999  56.3 -99.9 1002.2 -9.9 -9.999 -99.9 -99.99 -9.99
2019/10/17 09:24 EDT    1.02   0.80 -999 -999 -999  56.4 -99.9 1002.2 -9.9 -9.999 -99.9 -99.99 -9.99
2019/10/17 09:30 EDT    1.00   0.80 -999 -999 -999  56.3 -99.9 1002.2 -9.9 -9.999 -99.9 -99.99 -9.99
2019/10/17 09:36 EDT    0.98   0.81 -999 -999 -999  56.0 -99.9 1002.1 -9.9 -9.999 -99.9 -99.99 -9.99
2019/10/17 09:42 EDT    0.96   0.78 -999 -999 -999  56.4 -99.9 1002.3 -9.9 -9.999 -99.9 -99.99 -9.99
2019/10/17 09:48 EDT    0.94   0.76 -999 -999 -999  57.0 -99.9 1002.2 -9.9 -9.999 -99.9 -99.99 -9.99
2019/10/17 09:54 EDT    0.92   0.74 -999 -999 -999  57.2 -99.9 1002.2 -9.9 -9.999 -99.9 -99.99 -9.99
2019/10/17 10:00 EDT    0.90   0.70 -999 -999 -999  57.6 -99.9 1002.2 -9.9 -9.999 -99.9 -99.99 -9.99
2019/10/17 10:06 EDT    0.87   0.67 -999 -999 -999  57.5 -99.9 1002.2 -9.9 -9.999 -99.9 -99.99 -9.99
2019/10/17 10:12 EDT    0.85   0.64 -999 -999 -999  57.7 -99.9 1002.2 -9.9 -9.999 -99.9 -99.99 -9.99
2019/10/17 10:18 EDT    0.83   0.64 -999 -999 -999  57.7 -99.9 1002.1 -9.9 -9.999 -99.9 -99.99 -9.99
2019/10/17 10:24 EDT    0.80   0.64 -999 -999 -999  58.1 -99.9 1002.1 -9.9 -9.999 -99.9 -99.99 -9.99
2019/10/17 10:30 EDT    0.78   0.63 -999 -999 -999  57.8 -99.9 1002.2 -9.9 -9.999 -99.9 -99.99 -9.99
2019/10/17 10:36 EDT    0.76   0.65 -999 -999 -999  58.0 -99.9 1002.3 -9.9 -9.999 -99.9 -99.99 -9.99
2019/10/17 10:42 EDT    0.73   0.63 -999 -999 -999  58.1 -99.9 1002.2 -9.9 -9.999 -99.9 -99.99 -9.99
2019/10/17 10:48 EDT    0.71   0.61 -999 -999 -999  58.0 -99.9 1002.2 -9.9 -9.999 -99.9 -99.99 -9.99
2019/10/17 10:54 EDT    0.69   0.60 -999 -999 -999  57.8 -99.9 1002.3 -9.9 -9.999 -99.9 -99.99 -9.99
2019/10/17 11:00 EDT    0.67   0.57 -999 -999 -999  57.9 -99.9 1002.3 -9.9 -9.999 -99.9 -99.99 -9.99
2019/10/17 11:06 EDT    0.64   0.53 -999 -999 -999  57.9 -99.9 1002.3 -9.9 -9.999 -99.9 -99.99 -9.99
2019/10/17 11:12 EDT    0.62   0.50 -999 -999 -999  57.9 -99.9 1002.4 -9.9 -9.999 -99.9 -99.99 -9.99
2019/10/17 11:18 EDT    0.60   0.47 -999 -999 -999  58.1 -99.9 1002.4 -9.9 -9.999 -99.9 -99.99 -9.99
2019/10/17 11:24 EDT    0.58   0.47 -999 -999 -999  58.5 -99.9 1002.4 -9.9 -9.999 -99.9 -99.99 -9.99
2019/10/17 11:30 EDT    0.56   0.44 -999 -999 -999  58.1 -99.9 1002.5 -9.9 -9.999 -99.9 -99.99 -9.99
2019/10/17 11:36 EDT    0.54   0.44 -999 -999 -999  58.7 -99.9 1002.7 -9.9 -9.999 -99.9 -99.99 -9.99
2019/10/17 11:42 EDT    0.52   0.43 -999 -999 -999  58.6 -99.9 1002.8 -9.9 -9.999 -99.9 -99.99 -9.99
2019/10/17 11:48 EDT    0.50   0.40 -999 -999 -999  58.7 -99.9 1002.7 -9.9 -9.999 -99.9 -99.99 -9.99
2019/10/17 11:54 EDT    0.48   0.39 -999 -999 -999  58.7 -99.9 1002.8 -9.9 -9.999 -99.9 -99.99 -9.99
2019/10/17 12:00 EDT    0.46   0.35 -999 -999 -999  59.2 -99.9 1002.7 -9.9 -9.999 -99.9 -99.99 -9.99
2019/10/17 12:06 EDT    0.45   0.29 -999 -999 -999  59.3 -99.9 1002.8 -9.9 -9.999 -99.9 -99.99 -9.99
2019/10/17 12:12 EDT    0.43   0.29 -999 -999 -999  59.0 -99.9 1002.7 -9.9 -9.999 -99.9 -99.99 -9.99
2019/10/17 12:18 EDT    0.41   0.27 -999 -999 -999  59.2 -99.9 1002.7 -9.9 -9.999 -99.9 -99.99 -9.99
2019/10/17 12:24 EDT    0.40   0.22 -999 -999 -999  59.2 -99.9 1002.7 -9.9 -9.999 -99.9 -99.99 -9.99
2019/10/17 12:30 EDT    0.38   0.23 -999 -999 -999  59.2 -99.9 1002.5 -9.9 -9.999 -99.9 -99.99 -9.99
2019/10/17 12:36 EDT    0.37   0.21 -999 -999 -999  59.1 -99.9 1002.6 -9.9 -9.999 -99.9 -99.99 -9.99
2019/10/17 12:42 EDT    0.35   0.19 -999 -999 -999  59.4 -99.9 1002.7 -9.9 -9.999 -99.9 -99.99 -9.99
2019/10/17 12:48 EDT    0.34   0.20 -999 -999 -999  59.4 -99.9 1002.6 -9.9 -9.999 -99.9 -99.99 -9.99
2019/10/17 12:54 EDT    0.33   0.18 -999 -999 -999  59.2 -99.9 1002.7 -9.9 -9.999 -99.9 -99.99 -9.99
2019/10/17 13:00 EDT    0.31   0.17 -999 -999 -999  59.2 -99.9 1002.9 -9.9 -9.999 -99.9 -99.99 -9.99
2019/10/17 13:06 EDT    0.30   0.15 -999 -999 -999  59.1 -99.9 1003.1 -9.9 -9.999 -99.9 -99.99 -9.99
2019/10/17 13:12 EDT    0.29   0.13 -999 -999 -999  58.8 -99.9 1003.0 -9.9 -9.999 -99.9 -99.99 -9.99
2019/10/17 13:18 EDT    0.29   0.12 -999 -999 -999  58.7 -99.9 1002.8 -9.9 -9.999 -99.9 -99.99 -9.99
2019/10/17 13:24 EDT    0.28   0.08 -999 -999 -999  59.5 -99.9 1002.7 -9.9 -9.999 -99.9 -99.99 -9.99
2019/10/17 13:30 EDT    0.27   0.06 -999 -999 -999  59.6 -99.9 1002.7 -9.9 -9.999 -99.9 -99.99 -9.99
2019/10/17 13:36 EDT    0.26   0.06 -999 -999 -999  59.3 -99.9 1002.7 -9.9 -9.999 -99.9 -99.99 -9.99
2019/10/17 13:42 EDT    0.26   0.06 -999 -999 -999  59.1 -99.9 1002.7 -9.9 -9.999 -99.9 -99.99 -9.99
2019/10/17 13:48 EDT    0.26   0.07 -999 -999 -999  59.5 -99.9 1002.7 -9.9 -9.999 -99.9 -99.99 -9.99
2019/10/17 13:54 EDT    0.25   0.12 -999 -999 -999  59.1 -99.9 1002.7 -9.9 -9.999 -99.9 -99.99 -9.99
2019/10/17 14:00 EDT    0.25   0.14 -999 -999 -999  59.4 -99.9 1003.0 -9.9 -9.999 -99.9 -99.99 -9.99
2019/10/17 14:06 EDT    0.25   0.14 -999 -999 -999  59.4 -99.9 1002.9 -9.9 -9.999 -99.9 -99.99 -9.99
2019/10/17 14:12 EDT    0.25   0.16 -999 -999 -999  59.4 -99.9 1002.8 -9.9 -9.999 -99.9 -99.99 -9.99
2019/10/17 14:18 EDT    0.26   0.18 -999 -999 -999  59.6 -99.9 1002.8 -9.9 -9.999 -99.9 -99.99 -9.99
2019/10/17 14:24 EDT    0.26   0.15 -999 -999 -999  59.3 -99.9 1002.8 -9.9 -9.999 -99.9 -99.99 -9.99
2019/10/17 14:30 EDT    0.27   0.16 -999 -999 -999  59.0 -99.9 1002.8 -9.9 -9.999 -99.9 -99.99 -9.99
2019/10/17 14:36 EDT    0.28   0.21 -999 -999 -999  59.3 -99.9 1003.0 -9.9 -9.999 -99.9 -99.99 -9.99
2019/10/17 14:42 EDT    0.28   0.18 -999 -999 -999  59.1 -99.9 1003.1 -9.9 -9.999 -99.9 -99.99 -9.99
2019/10/17 14:48 EDT    0.30   0.16 -999 -999 -999  58.9 -99.9 1003.3 -9.9 -9.999 -99.9 -99.99 -9.99
2019/10/17 14:54 EDT    0.31   0.17 -999 -999 -999  59.0 -99.9 1003.3 -9.9 -9.999 -99.9 -99.99 -9.99
2019/10/17 15:00 EDT    0.32   0.21 -999 -999 -999  58.8 -99.9 1003.4 -9.9 -9.999 -99.9 -99.99 -9.99
2019/10/17 15:06 EDT    0.34   0.23 -999 -999 -999  58.6 -99.9 1003.3 -9.9 -9.999 -99.9 -99.99 -9.99
2019/10/17 15:12 EDT    0.35   0.23 -999 -999 -999  58.7 -99.9 1003.3 -9.9 -9.999 -99.9 -99.99 -9.99
2019/10/17 15:18 EDT    0.37   0.25 -999 -999 -999  58.5 -99.9 1003.3 -9.9 -9.999 -99.9 -99.99 -9.99
2019/10/17 15:24 EDT    0.39   0.27 -999 -999 -999  58.2 -99.9 1003.3 -9.9 -9.999 -99.9 -99.99 -9.99
2019/10/17 15:30 EDT    0.41   0.34 -999 -999 -999  58.6 -99.9 1003.4 -9.9 -9.999 -99.9 -99.99 -9.99
2019/10/17 15:36 EDT    0.44   0.35 -999 -999 -999  58.3 -99.9 1003.6 -9.9 -9.999 -99.9 -99.99 -9.99
2019/10/17 15:42 EDT    0.46   0.35 -999 -999 -999  58.4 -99.9 1003.7 -9.9 -9.999 -99.9 -99.99 -9.99
2019/10/17 15:48 EDT    0.49   0.34 -999 -999 -999  58.2 -99.9 1003.8 -9.9 -9.999 -99.9 -99.99 -9.99
2019/10/17 15:54 EDT    0.51   0.33 -999 -999 -999  58.3 -99.9 1003.9 -9.9 -9.999 -99.9 -99.99 -9.99
2019/10/17 16:00 EDT    0.54   0.37 -999 -999 -999  58.3 -99.9 1003.8 -9.9 -9.999 -99.9 -99.99 -9.99
2019/10/17 16:06 EDT    0.57   0.41 -999 -999 -999  57.9 -99.9 1003.7 -9.9 -9.999 -99.9 -99.99 -9.99
2019/10/17 16:12 EDT    0.60   0.44 -999 -999 -999  58.1 -99.9 1003.9 -9.9 -9.999 -99.9 -99.99 -9.99
2019/10/17 16:18 EDT    0.63   0.48 -999 -999 -999  58.3 -99.9 1004.0 -9.9 -9.999 -99.9 -99.99 -9.99
2019/10/17 16:24 EDT    0.66   0.54 -999 -999 -999  57.9 -99.9 1004.1 -9.9 -9.999 -99.9 -99.99 -9.99
2019/10/17 16:30 EDT    0.69   0.55 -999 -999 -999  57.8 -99.9 1004.1 -9.9 -9.999 -99.9 -99.99 -9.99
2019/10/17 16:36 EDT    0.72   0.58 -999 -999 -999  57.8 -99.9 1004.1 -9.9 -9.999 -99.9 -99.99 -9.99
2019/10/17 16:42 EDT    0.75   0.64 -999 -999 -999  57.6 -99.9 1004.3 -9.9 -9.999 -99.9 -99.99 -9.99
2019/10/17 16:48 EDT    0.78   0.66 -999 -999 -999  57.2 -99.9 1004.3 -9.9 -9.999 -99.9 -99.99 -9.99
2019/10/17 16:54 EDT    0.81   0.71 -999 -999 -999  57.2 -99.9 1004.5 -9.9 -9.999 -99.9 -99.99 -9.99
2019/10/17 17:00 EDT    0.85   0.74 -999 -999 -999  57.2 -99.9 1004.6 -9.9 -9.999 -99.9 -99.99 -9.99
2019/10/17 17:06 EDT    0.88   0.74 -999 -999 -999  57.0 -99.9 1004.6 -9.9 -9.999 -99.9 -99.99 -9.99
2019/10/17 17:12 EDT    0.91   0.76 -999 -999 -999  56.9 -99.9 1004.7 -9.9 -9.999 -99.9 -99.99 -9.99
2019/10/17 17:18 EDT    0.94   0.77 -999 -999 -999  56.6 -99.9 1004.6 -9.9 -9.999 -99.9 -99.99 -9.99
2019/10/17 17:24 EDT    0.97   0.77 -999 -999 -999  56.3 -99.9 1004.7 -9.9 -9.999 -99.9 -99.99 -9.99
2019/10/17 17:30 EDT    1.00   0.80 -999 -999 -999  56.1 -99.9 1004.9 -9.9 -9.999 -99.9 -99.99 -9.99
2019/10/17 17:36 EDT    1.03   0.83 -999 -999 -999  56.0 -99.9 1005.1 -9.9 -9.999 -99.9 -99.99 -9.99
2019/10/17 17:42 EDT    1.06   0.82 -999 -999 -999  56.0 -99.9 1005.2 -9.9 -9.999 -99.9 -99.99 -9.99
2019/10/17 17:48 EDT    1.09   0.84 -999 -999 -999  56.0 -99.9 1005.4 -9.9 -9.999 -99.9 -99.99 -9.99
2019/10/17 17:54 EDT    1.12   0.82 -999 -999 -999  55.8 -99.9 1005.5 -9.9 -9.999 -99.9 -99.99 -9.99
2019/10/17 18:00 EDT    1.15   0.81 -999 -999 -999  55.8 -99.9 1005.5 -9.9 -9.999 -99.9 -99.99 -9.99
2019/10/17 18:06 EDT    1.18   0.82 -999 -999 -999  55.8 -99.9 1005.6 -9.9 -9.999 -99.9 -99.99 -9.99
2019/10/17 18:12 EDT    1.20   0.85 -999 -999 -999  55.6 -99.9 1005.6 -9.9 -9.999 -99.9 -99.99 -9.99
2019/10/17 18:18 EDT    1.23   0.90 -999 -999 -999  55.6 -99.9 1005.6 -9.9 -9.999 -99.9 -99.99 -9.99
2019/10/17 18:24 EDT    1.25   0.95 -999 -999 -999  55.3 -99.9 1005.6 -9.9 -9.999 -99.9 -99.99 -9.99
2019/10/17 18:30 EDT    1.28   0.97 -999 -999 -999  55.2 -99.9 1005.7 -9.9 -9.999 -99.9 -99.99 -9.99
2019/10/17 18:36 EDT    1.30   0.99 -999 -999 -999  55.0 -99.9 1005.8 -9.9 -9.999 -99.9 -99.99 -9.99
2019/10/17 18:42 EDT    1.32   1.03 -999 -999 -999  55.0 -99.9 1005.8 -9.9 -9.999 -99.9 -99.99 -9.99
2019/10/17 18:48 EDT    1.35   1.04 -999 -999 -999  54.9 -99.9 1005.9 -9.9 -9.999 -99.9 -99.99 -9.99
2019/10/17 18:54 EDT    1.37   1.08 -999 -999 -999  54.8 -99.9 1005.9 -9.9 -9.999 -99.9 -99.99 -9.99
2019/10/17 19:00 EDT    1.39   1.11 -999 -999 -999  54.7 -99.9 1006.1 -9.9 -9.999 -99.9 -99.99 -9.99
2019/10/17 19:06 EDT    1.41   1.11 -999 -999 -999  55.0 -99.9 1006.4 -9.9 -9.999 -99.9 -99.99 -9.99
2019/10/17 19:12 EDT    1.43   1.12 -999 -999 -999  55.0 -99.9 1006.6 -9.9 -9.999 -99.9 -99.99 -9.99
2019/10/17 19:18 EDT    1.44   1.13 -999 -999 -999  54.9 -99.9 1006.7 -9.9 -9.999 -99.9 -99.99 -9.99
2019/10/17 19:24 EDT    1.46   1.12 -999 -999 -999  55.0 -99.9 1006.8 -9.9 -9.999 -99.9 -99.99 -9.99
2019/10/17 19:30 EDT    1.48   1.11 -999 -999 -999  55.0 -99.9 1006.8 -9.9 -9.999 -99.9 -99.99 -9.99
2019/10/17 19:36 EDT    1.49   1.12 -999 -999 -999  55.0 -99.9 1006.9 -9.9 -9.999 -99.9 -99.99 -9.99
2019/10/17 19:42 EDT    1.50   1.16 -999 -999 -999  55.0 -99.9 1007.0 -9.9 -9.999 -99.9 -99.99 -9.99
2019/10/17 19:48 EDT    1.52   1.17 -999 -999 -999  55.0 -99.9 1007.2 -9.9 -9.999 -99.9 -99.99 -9.99
2019/10/17 19:54 EDT    1.53   1.20 -999 -999 -999  54.9 -99.9 1007.3 -9.9 -9.999 -99.9 -99.99 -9.99
2019/10/17 20:00 EDT    1.54   1.21 -999 -999 -999  55.0 -99.9 1007.3 -9.9 -9.999 -99.9 -99.99 -9.99
2019/10/17 20:06 EDT    1.55   1.19 -999 -999 -999  55.0 -99.9 1007.3 -9.9 -9.999 -99.9 -99.99 -9.99
2019/10/17 20:12 EDT    1.55   1.22 -999 -999 -999  55.0 -99.9 1007.5 -9.9 -9.999 -99.9 -99.99 -9.99
2019/10/17 20:18 EDT    1.56   1.23 -999 -999 -999  54.9 -99.9 1007.6 -9.9 -9.999 -99.9 -99.99 -9.99
2019/10/17 20:24 EDT    1.57   1.23 -999 -999 -999  54.7 -99.9 1007.6 -9.9 -9.999 -99.9 -99.99 -9.99
2019/10/17 20:30 EDT    1.57   1.25 -999 -999 -999  54.6 -99.9 1007.6 -9.9 -9.999 -99.9 -99.99 -9.99
2019/10/17 20:36 EDT    1.57   1.25 -999 -999 -999  54.7 -99.9 1007.7 -9.9 -9.999 -99.9 -99.99 -9.99
2019/10/17 20:42 EDT    1.57   1.24 -999 -999 -999  54.4 -99.9 1007.7 -9.9 -9.999 -99.9 -99.99 -9.99
2019/10/17 20:48 EDT    1.57   1.22 -999 -999 -999  54.2 -99.9 1007.8 -9.9 -9.999 -99.9 -99.99 -9.99
2019/10/17 20:54 EDT    1.57   1.21 -999 -999 -999  54.2 -99.9 1007.9 -9.9 -9.999 -99.9 -99.99 -9.99
2019/10/17 21:00 EDT    1.57   1.22 -999 -999 -999  54.2 -99.9 1007.8 -9.9 -9.999 -99.9 -99.99 -9.99
2019/10/17 21:06 EDT    1.57   1.23 -999 -999 -999  54.0 -99.9 1007.8 -9.9 -9.999 -99.9 -99.99 -9.99
2019/10/17 21:12 EDT    1.56   1.23 -999 -999 -999  54.0 -99.9 1007.9 -9.9 -9.999 -99.9 -99.99 -9.99
2019/10/17 21:18 EDT    1.55   1.23 -999 -999 -999  53.9 -99.9 1008.0 -9.9 -9.999 -99.9 -99.99 -9.99
2019/10/17 21:24 EDT    1.54   1.21 -999 -999 -999  53.9 -99.9 1008.1 -9.9 -9.999 -99.9 -99.99 -9.99
2019/10/17 21:30 EDT    1.54   1.18 -999 -999 -999  54.0 -99.9 1008.2 -9.9 -9.999 -99.9 -99.99 -9.99
2019/10/17 21:36 EDT    1.52   1.15 -999 -999 -999  53.7 -99.9 1008.3 -9.9 -9.999 -99.9 -99.99 -9.99
2019/10/17 21:42 EDT    1.51   1.10 -999 -999 -999  53.6 -99.9 1008.3 -9.9 -9.999 -99.9 -99.99 -9.99
2019/10/17 21:48 EDT    1.50   1.07 -999 -999 -999  53.5 -99.9 1008.3 -9.9 -9.999 -99.9 -99.99 -9.99
2019/10/17 21:54 EDT    1.49   1.05 -999 -999 -999  53.4 -99.9 1008.3 -9.9 -9.999 -99.9 -99.99 -9.99
2019/10/17 22:00 EDT    1.47   1.03 -999 -999 -999  53.3 -99.9 1008.3 -9.9 -9.999 -99.9 -99.99 -9.99
2019/10/17 22:06 EDT    1.45   1.02 -999 -999 -999  53.1 -99.9 1008.2 -9.9 -9.999 -99.9 -99.99 -9.99
2019/10/17 22:12 EDT    1.44   1.00 -999 -999 -999  53.0 -99.9 1008.2 -9.9 -9.999 -99.9 -99.99 -9.99
2019/10/17 22:18 EDT    1.42   0.97 -999 -999 -999  53.1 -99.9 1008.3 -9.9 -9.999 -99.9 -99.99 -9.99
2019/10/17 22:24 EDT    1.40   0.95 -999 -999 -999  53.1 -99.9 1008.5 -9.9 -9.999 -99.9 -99.99 -9.99
2019/10/17 22:30 EDT    1.38   0.92 -999 -999 -999  53.1 -99.9 1008.6 -9.9 -9.999 -99.9 -99.99 -9.99
2019/10/17 22:36 EDT    1.36   0.90 -999 -999 -999  53.0 -99.9 1008.7 -9.9 -9.999 -99.9 -99.99 -9.99
2019/10/17 22:42 EDT    1.34   0.87 -999 -999 -999  52.9 -99.9 1008.6 -9.9 -9.999 -99.9 -99.99 -9.99
2019/10/17 22:48 EDT    1.32   0.86 -999 -999 -999  52.7 -99.9 1008.6 -9.9 -9.999 -99.9 -99.99 -9.99
2019/10/17 22:54 EDT    1.30   0.84 -999 -999 -999  52.7 -99.9 1008.7 -9.9 -9.999 -99.9 -99.99 -9.99
2019/10/17 23:00 EDT    1.28   0.80 -999 -999 -999  52.5 -99.9 1008.7 -9.9 -9.999 -99.9 -99.99 -9.99
2019/10/17 23:06 EDT    1.26   0.76 -999 -999 -999  52.5 -99.9 1008.8 -9.9 -9.999 -99.9 -99.99 -9.99
2019/10/17 23:12 EDT    1.24   0.75 -999 -999 -999  52.2 -99.9 1008.8 -9.9 -9.999 -99.9 -99.99 -9.99
2019/10/17 23:18 EDT    1.22   0.75 -999 -999 -999  52.2 -99.9 1008.8 -9.9 -9.999 -99.9 -99.99 -9.99
2019/10/17 23:24 EDT    1.19   0.73 -999 -999 -999  52.2 -99.9 1009.0 -9.9 -9.999 -99.9 -99.99 -9.99
2019/10/17 23:30 EDT    1.17   0.71 -999 -999 -999  52.0 -99.9 1009.0 -9.9 -9.999 -99.9 -99.99 -9.99
2019/10/17 23:36 EDT    1.15   0.69 -999 -999 -999  51.8 -99.9 1009.0 -9.9 -9.999 -99.9 -99.99 -9.99
2019/10/17 23:42 EDT    1.13   0.67 -999 -999 -999  51.7 -99.9 1008.9 -9.9 -9.999 -99.9 -99.99 -9.99
2019/10/17 23:48 EDT    1.11   0.65 -999 -999 -999  51.6 -99.9 1008.9 -9.9 -9.999 -99.9 -99.99 -9.99
2019/10/17 23:54 EDT    1.08   0.64 -999 -999 -999  51.6 -99.9 1009.0 -9.9 -9.999 -99.9 -99.99 -9.99
2019/10/18 00:00 EDT    1.06   0.63 -999 -999 -999  51.6 -99.9 1009.0 -9.9 -9.999 -99.9 -99.99 -9.99
2019/10/18 00:06 EDT    1.04   0.59 -999 -999 -999  51.6 -99.9 1009.0 -9.9 -9.999 -99.9 -99.99 -9.99
2019/10/18 00:12 EDT    1.02   0.56 -999 -999 -999  51.5 -99.9 1009.1 -9.9 -9.999 -99.9 -99.99 -9.99
2019/10/18 00:18 EDT    1.00   0.55 -999 -999 -999  51.3 -99.9 1009.1 -9.9 -9.999 -99.9 -99.99 -9.99
2019/10/18 00:24 EDT    0.98   0.54 -999 -999 -999  51.3 -99.9 1009.1 -9.9 -9.999 -99.9 -99.99 -9.99
2019/10/18 00:30 EDT    0.96   0.51 -999 -999 -999  51.1 -99.9 1009.1 -9.9 -9.999 -99.9 -99.99 -9.99
2019/10/18 00:36 EDT    0.94   0.49 -999 -999 -999  51.2 -99.9 1009.3 -9.9 -9.999 -99.9 -99.99 -9.99
2019/10/18 00:42 EDT    0.92   0.46 -999 -999 -999  51.2 -99.9 1009.4 -9.9 -9.999 -99.9 -99.99 -9.99
2019/10/18 00:48 EDT    0.90   0.44 -999 -999 -999  51.2 -99.9 1009.4 -9.9 -9.999 -99.9 -99.99 -9.99
2019/10/18 00:54 EDT    0.88   0.42 -999 -999 -999  51.0 -99.9 1009.4 -9.9 -9.999 -99.9 -99.99 -9.99
2019/10/18 01:00 EDT    0.86   0.40 -999 -999 -999  50.9 -99.9 1009.4 -9.9 -9.999 -99.9 -99.99 -9.99
2019/10/18 01:06 EDT    0.84   0.37 -999 -999 -999  50.8 -99.9 1009.4 -9.9 -9.999 -99.9 -99.99 -9.99
2019/10/18 01:12 EDT    0.82   0.34 -999 -999 -999  50.8 -99.9 1009.4 -9.9 -9.999 -99.9 -99.99 -9.99
2019/10/18 01:18 EDT    0.81   0.33 -999 -999 -999  50.7 -99.9 1009.4 -9.9 -9.999 -99.9 -99.99 -9.99
2019/10/18 01:24 EDT    0.79   0.32 -999 -999 -999  50.5 -99.9 1009.5 -9.9 -9.999 -99.9 -99.99 -9.99
2019/10/18 01:30 EDT    0.77   0.28 -999 -999 -999  50.5 -99.9 1009.5 -9.9 -9.999 -99.9 -99.99 -9.99
2019/10/18 01:36 EDT    0.76   0.25 -999 -999 -999  50.4 -99.9 1009.5 -9.9 -9.999 -99.9 -99.99 -9.99
2019/10/18 01:42 EDT    0.74   0.24 -999 -999 -999  50.7 -99.9 1009.6 -9.9 -9.999 -99.9 -99.99 -9.99
2019/10/18 01:48 EDT    0.72   0.22 -999 -999 -999  50.6 -99.9 1009.6 -9.9 -9.999 -99.9 -99.99 -9.99
2019/10/18 01:54 EDT    0.71   0.18 -999 -999 -999  50.4 -99.9 1009.6 -9.9 -9.999 -99.9 -99.99 -9.99
2019/10/18 02:00 EDT    0.70   0.15 -999 -999 -999  50.2 -99.9 1009.5 -9.9 -9.999 -99.9 -99.99 -9.99
2019/10/18 02:06 EDT    0.68   0.16 -999 -999 -999  50.1 -99.9 1009.4 -9.9 -9.999 -99.9 -99.99 -9.99
2019/10/18 02:12 EDT    0.67   0.15 -999 -999 -999  49.9 -99.9 1009.3 -9.9 -9.999 -99.9 -99.99 -9.99
2019/10/18 02:18 EDT    0.66   0.12 -999 -999 -999  49.9 -99.9 1009.4 -9.9 -9.999 -99.9 -99.99 -9.99
2019/10/18 02:24 EDT    0.65   0.10 -999 -999 -999  50.1 -99.9 1009.6 -9.9 -9.999 -99.9 -99.99 -9.99
2019/10/18 02:30 EDT    0.64   0.10 -999 -999 -999  49.9 -99.9 1009.6 -9.9 -9.999 -99.9 -99.99 -9.99
2019/10/18 02:36 EDT    0.63   0.09 -999 -999 -999  50.0 -99.9 1009.7 -9.9 -9.999 -99.9 -99.99 -9.99
2019/10/18 02:42 EDT    0.63   0.07 -999 -999 -999  49.6 -99.9 1009.6 -9.9 -9.999 -99.9 -99.99 -9.99
2019/10/18 02:48 EDT    0.62   0.03 -999 -999 -999  49.8 -99.9 1009.7 -9.9 -9.999 -99.9 -99.99 -9.99
2019/10/18 02:54 EDT    0.62   0.01 -999 -999 -999  49.7 -99.9 1009.7 -9.9 -9.999 -99.9 -99.99 -9.99
2019/10/18 03:00 EDT    0.61   0.00 -999 -999 -999  49.3 -99.9 1009.7 -9.9 -9.999 -99.9 -99.99 -9.99
2019/10/18 03:06 EDT    0.61  -0.01 -999 -999 -999  49.2 -99.9 1009.7 -9.9 -9.999 -99.9 -99.99 -9.99
2019/10/18 03:12 EDT    0.61  -0.04 -999 -999 -999  49.2 -99.9 1009.7 -9.9 -9.999 -99.9 -99.99 -9.99
2019/10/18 03:18 EDT    0.61  -0.05 -999 -999 -999  49.1 -99.9 1009.8 -9.9 -9.999 -99.9 -99.99 -9.99
2019/10/18 03:24 EDT    0.62  -0.03 -999 -999 -999  48.9 -99.9 1009.9 -9.9 -9.999 -99.9 -99.99 -9.99
2019/10/18 03:30 EDT    0.62  -0.02 -999 -999 -999  48.6 -99.9 1009.9 -9.9 -9.999 -99.9 -99.99 -9.99
2019/10/18 03:36 EDT    0.62  -0.03 -999 -999 -999  48.2 -99.9 1009.9 -9.9 -9.999 -99.9 -99.99 -9.99
2019/10/18 03:42 EDT    0.63  -0.05 -999 -999 -999  48.3 -99.9 1010.0 -9.9 -9.999 -99.9 -99.99 -9.99
2019/10/18 03:48 EDT    0.64  -0.05 -999 -999 -999  48.3 -99.9 1010.2 -9.9 -9.999 -99.9 -99.99 -9.99
2019/10/18 03:54 EDT    0.65  -0.04 -999 -999 -999  48.6 -99.9 1010.2 -9.9 -9.999 -99.9 -99.99 -9.99
2019/10/18 04:00 EDT    0.66  -0.05 -999 -999 -999  48.6 -99.9 1010.2 -9.9 -9.999 -99.9 -99.99 -9.99
2019/10/18 04:06 EDT    0.67  -0.06 -999 -999 -999  48.5 -99.9 1010.2 -9.9 -9.999 -99.9 -99.99 -9.99
2019/10/18 04:12 EDT    0.68  -0.07 -999 -999 -999  48.2 -99.9 1010.2 -9.9 -9.999 -99.9 -99.99 -9.99
2019/10/18 04:18 EDT    0.69  -0.05 -999 -999 -999  48.0 -99.9 1010.2 -9.9 -9.999 -99.9 -99.99 -9.99
2019/10/18 04:24 EDT    0.70 -99.99 -999 -999 -999 -99.9 -99.9 -999.9 -9.9 -9.999 -99.9 -99.99 -9.99
2019/10/18 04:30 EDT    0.72 -99.99 -999 -999 -999 -99.9 -99.9 -999.9 -9.9 -9.999 -99.9 -99.99 -9.99